Flight Track Log - Related Links

Times and Time Zones

All times are in EDT time to prevent confusion due to time zone crossing. See the AFL150 flight status page for this flight to view local times or setup timezone preferences in your user account.

Time Position Orientation Groundspeed Altitude Reporting Facility
EDT Latitude Longitude Course Direction KTS MPH feet Rate Location/Type
Mon 09:15:57 AM 55.9640 37.3640 254° West 168 193 1,800  Level FlightAware ADS-B
Mon 09:16:17 AM 55.9600 37.3380 255° West 156 180 2,800 1,800 Climbing FlightAware ADS-B
Mon 09:16:37 AM 55.9570 37.3110 259° West 177 204 3,000 900 Climbing FlightAware ADS-B
Mon 09:16:57 AM 55.9620 37.2810 287° West 197 227 3,400 1,067 Climbing FlightAware ADS-B
Mon 09:17:22 AM 55.9710 37.2400 291° West 228 262 3,800 1,600 Climbing FlightAware ADS-B
Mon 09:17:42 AM 55.9800 37.2040 294° West 234 269 4,600 1,950 Climbing FlightAware ADS-B
Mon 09:18:02 AM 55.9890 37.1690 295° West 234 269 5,100 1,650 Climbing FlightAware ADS-B
Mon 09:18:22 AM 55.9980 37.1340 295° West 241 277 5,700 2,133 Climbing FlightAware ADS-B
Mon 09:18:47 AM 56.0090 37.0910 295° West 241 277 6,700 2,400 Climbing FlightAware ADS-B
Mon 09:19:02 AM 56.0160 37.0600 292° West 247 284 7,300 2,550 Climbing FlightAware ADS-B
Mon 09:19:27 AM 56.0280 37.0130 295° West 250 288 8,400 2,520 Climbing FlightAware ADS-B
Mon 09:19:52 AM 56.0400 36.9660 295° West 254 292 9,400 2,400 Climbing FlightAware ADS-B
Mon 09:20:22 AM 56.0540 36.9070 293° West 261 300 10,600 1,543 Climbing FlightAware ADS-B
Mon 09:21:02 AM 56.0750 36.8220 294° West 298 343 11,200 1,029 Climbing FlightAware ADS-B
Mon 09:21:32 AM 56.0920 36.7520 294° West 324 373 11,800 1,652 Climbing FlightAware ADS-B
Mon 09:22:11 AM 56.1130 36.6660 294° West 332 382 13,100 2,229 Climbing FlightAware ADS-B
Mon 09:22:42 AM 56.1380 36.5750 296° West 338 389 14,400 2,488 Climbing FlightAware ADS-B
Mon 09:22:52 AM 56.1480 36.5550 312° West 340 391 14,800 2,400 Climbing FlightAware ADS-B
Mon 09:23:02 AM 56.1610 36.5380 324° Northwest 343 395 15,200 1,800 Climbing FlightAware ADS-B
Mon 09:23:42 AM 56.2180 36.4820 331° Northwest 360 414 16,300 1,833 Climbing FlightAware ADS-B
Mon 09:24:14 AM 56.2610 36.4400 332° Northwest 362 417 17,400 2,057 Climbing FlightAware ADS-B
Mon 09:24:52 AM 56.3210 36.3810 331° Northwest 369 425 18,700 2,029 Climbing FlightAware ADS-B
Mon 09:25:22 AM 56.3670 36.3370 332° Northwest 374 430 19,700 1,886 Climbing FlightAware ADS-B
Mon 09:26:02 AM 56.4280 36.2770 331° Northwest 378 435 20,900 1,714 Climbing FlightAware ADS-B
Mon 09:26:32 AM 56.4740 36.2320 332° Northwest 383 441 21,700 2,123 Climbing FlightAware ADS-B
Mon 09:27:07 AM 56.5280 36.1790 332° Northwest 373 429 23,200 2,571 Climbing FlightAware ADS-B
Mon 09:27:42 AM 56.5790 36.1290 332° Northwest 360 414 24,700 2,000 Climbing FlightAware ADS-B
Mon 09:28:22 AM 56.6370 36.0720 332° Northwest 362 417 25,700 1,457 Climbing FlightAware ADS-B
Mon 09:28:52 AM 56.6820 36.0270 331° Northwest 366 421 26,400 1,385 Climbing FlightAware ADS-B
Mon 09:29:27 AM 56.7350 35.9750 332° Northwest 369 425 27,200 1,371 Climbing FlightAware ADS-B
Mon 09:30:02 AM 56.7870 35.9230 331° Northwest 370 426 28,000 1,200 Climbing FlightAware ADS-B
Mon 09:30:42 AM 56.8470 35.8630 331° Northwest 374 430 28,700 930 Climbing FlightAware ADS-B
Mon 09:31:13 AM 56.8930 35.8170 331° Northwest 380 437 29,100 857 Climbing FlightAware ADS-B
Mon 09:31:52 AM 56.9560 35.7540 331° Northwest 386 444 29,700 870 Climbing FlightAware ADS-B
Mon 09:32:22 AM 57.0020 35.7070 331° Northwest 391 450 30,100 831 Climbing FlightAware ADS-B
Mon 09:32:57 AM 57.0580 35.6510 331° Northwest 394 453 30,600 771 Climbing FlightAware ADS-B
Mon 09:33:32 AM 57.1140 35.5940 331° Northwest 397 457 31,000 943 Climbing FlightAware ADS-B
Mon 09:34:07 AM 57.1700 35.5360 331° Northwest 395 455 31,700 1,280 Climbing FlightAware ADS-B
Mon 09:34:47 AM 57.2340 35.4710 331° Northwest 390 449 32,600 1,200 Climbing FlightAware ADS-B
Mon 09:35:17 AM 57.2810 35.4230 331° Northwest 390 449 33,100 857 Climbing FlightAware ADS-B
Mon 09:35:57 AM 57.3440 35.3580 331° Northwest 390 449 33,600 857 Climbing FlightAware ADS-B
Mon 09:36:27 AM 57.3910 35.3090 331° Northwest 388 447 34,100 771 Climbing FlightAware ADS-B
Mon 09:37:07 AM 57.4540 35.2440 331° Northwest 391 450 34,500 514 Climbing FlightAware ADS-B
Mon 09:37:37 AM 57.5000 35.1960 331° Northwest 394 453 34,700 529 Climbing FlightAware ADS-B
Mon 09:38:15 AM 57.5570 35.1360 331° Northwest 397 457 35,100 560 Climbing FlightAware ADS-B
Mon 09:38:52 AM 57.6210 35.0690 331° Northwest 400 460 35,400 500 Climbing FlightAware ADS-B
Mon 09:39:27 AM 57.6770 35.0110 331° Northwest 403 464 35,700 369 Climbing FlightAware ADS-B
Mon 09:39:57 AM 57.7240 34.9560 328° Northwest 404 465 35,800 277 Climbing FlightAware ADS-B
Mon 09:40:32 AM 57.7780 34.8810 323° Northwest 408 470 36,000 171 Climbing FlightAware ADS-B
Mon 09:41:07 AM 57.8320 34.8090 325° Northwest 414 476 36,000  Level FlightAware ADS-B
Mon 09:41:42 AM 57.8860 34.7350 324° Northwest 415 478 36,000  Level FlightAware ADS-B
Mon 09:42:22 AM 57.9480 34.6490 324° Northwest 416 479 36,000  Level FlightAware ADS-B
Mon 09:42:57 AM 58.0010 34.5740 323° Northwest 416 479 36,000  Level FlightAware ADS-B
Mon 09:43:27 AM 58.0480 34.5080 323° Northwest 416 479 36,000  Level FlightAware ADS-B
Mon 09:44:02 AM 58.1010 34.4340 324° Northwest 415 478 36,000  Level FlightAware ADS-B
Mon 09:44:37 AM 58.1540 34.3590 323° Northwest 415 478 36,000  Level FlightAware ADS-B
Mon 09:45:17 AM 58.2150 34.2670 322° Northwest 411 473 36,000  Level FlightAware ADS-B
Mon 09:45:52 AM 58.2660 34.1880 321° Northwest 409 471 36,000  Level FlightAware ADS-B
Mon 09:46:22 AM 58.3100 34.1200 321° Northwest 408 470 36,000  Level FlightAware ADS-B
Mon 09:46:57 AM 58.3610 34.0430 322° Northwest 407 468 36,000  Level FlightAware ADS-B
Mon 09:47:43 AM 58.4250 33.9440 321° Northwest 401 461 36,000  Level FlightAware ADS-B
Mon 09:48:33 AM 58.4880 33.8450 321° Northwest 400 460 36,000  Level FlightAware ADS-B
Mon 09:49:14 AM 58.5530 33.7450 321° Northwest 400 460 36,000  Level FlightAware ADS-B
Mon 09:49:49 AM 58.6120 33.6550 322° Northwest 405 466 36,000  Level FlightAware ADS-B
Mon 09:50:19 AM 58.6550 33.5870 321° Northwest 405 466 36,000  Level FlightAware ADS-B
Mon 09:50:54 AM 58.7050 33.5100 321° Northwest 406 467 36,000  Level FlightAware ADS-B
Mon 09:51:39 AM 58.7670 33.3980 317° Northwest 404 465 36,000  Level FlightAware ADS-B
Mon 09:52:14 AM 58.8100 33.3160 315° West 405 466 36,000  Level FlightAware ADS-B
Mon 09:52:49 AM 58.8590 33.2230 316° Northwest 405 466 36,000  Level FlightAware ADS-B
Mon 09:53:34 AM 58.9110 33.1210 315° West 405 466 36,000  Level FlightAware ADS-B
Mon 09:54:09 AM 58.9650 33.0160 315° West 405 466 36,000  Level FlightAware ADS-B
Mon 09:54:39 AM 59.0050 32.9370 315° West 405 466 36,000  Level FlightAware ADS-B
Mon 09:55:14 AM 59.0490 32.8510 315° West 406 467 36,000  Level FlightAware ADS-B
Mon 09:55:54 AM 59.1040 32.7430 315° West 408 470 36,000  Level FlightAware ADS-B
Mon 09:56:24 AM 59.1430 32.6660 315° West 408 470 36,000  Level FlightAware ADS-B
Mon 09:56:59 AM 59.1900 32.5710 314° West 410 472 36,000  Level FlightAware ADS-B
Mon 09:57:34 AM 59.2370 32.4790 315° West 413 475 36,000  Level FlightAware ADS-B
Mon 09:58:14 AM 59.2890 32.3740 314° West 413 475 36,000  Level FlightAware ADS-B
Mon 09:58:44 AM 59.3280 32.2960 314° West 412 474 36,000  Level FlightAware ADS-B
Mon 09:59:20 AM 59.3750 32.2000 314° West 410 472 36,000  Level FlightAware ADS-B
Mon 09:59:59 AM 59.4250 32.0890 312° West 410 472 36,000  Level FlightAware ADS-B
Mon 10:00:29 AM 59.4560 31.9960 303° West 411 473 36,000  Level FlightAware ADS-B
Mon 10:00:59 AM 59.4770 31.8930 292° West 414 476 36,000  Level FlightAware ADS-B
Mon 10:01:34 AM 59.4840 31.7590 276° West 416 479 36,000  Level FlightAware ADS-B
Mon 10:02:09 AM 59.4920 31.6310 277° West 418 481 36,000  Level FlightAware ADS-B
Mon 10:02:50 AM 59.4990 31.4850 275° West 419 482 36,000  Level FlightAware ADS-B
Mon 10:03:24 AM 59.5060 31.3490 276° West 421 484 36,000  Level FlightAware ADS-B
Mon 10:04:04 AM 59.5140 31.1930 276° West 422 486 36,000  Level FlightAware ADS-B
Mon 10:04:39 AM 59.5210 31.0620 276° West 423 487 36,000  Level FlightAware ADS-B
Mon 10:05:09 AM 59.5270 30.9450 276° West 422 486 36,000  Level FlightAware ADS-B
Mon 10:05:44 AM 59.5330 30.8100 275° West 421 484 36,000  Level FlightAware ADS-B
Mon 10:06:24 AM 59.5400 30.6620 275° West 419 482 36,000  Level FlightAware ADS-B
Mon 10:06:54 AM 59.5450 30.5550 275° West 418 481 36,000  Level FlightAware ADS-B
Mon 10:07:34 AM 59.5520 30.3950 275° West 417 480 36,000  Level FlightAware ADS-B
Mon 10:08:04 AM 59.5570 30.2830 275° West 418 481 36,000  Level FlightAware ADS-B
Mon 10:08:39 AM 59.5620 30.1580 275° West 418 481 36,000  Level FlightAware ADS-B
Mon 10:09:14 AM 59.5680 30.0170 275° West 419 482 36,000  Level FlightAware ADS-B
Mon 10:09:48 AM 59.5730 29.8830 274° West 419 482 36,000  Level FlightAware ADS-B
Mon 10:10:24 AM 59.5790 29.7490 275° West 420 483 36,000  Level FlightAware ADS-B
Mon 10:11:09 AM 59.5970 29.5840 282° West 416 479 36,000  Level FlightAware ADS-B
Mon 10:12:02 AM 59.6160 29.4310 284° West 415 478 36,000  Level FlightAware ADS-B
Mon 10:12:37 AM 59.6350 29.2770 284° West 413 475 36,000  Level FlightAware ADS-B
Mon 10:13:18 AM 59.6550 29.1110 283° West 411 473 36,000  Level FlightAware ADS-B
Mon 10:13:50 AM 59.6690 28.9960 284° West 411 473 36,000  Level FlightAware ADS-B
Mon 10:14:25 AM 59.6840 28.8670 283° West 411 473 36,000  Level FlightAware ADS-B
Mon 10:14:59 AM 59.6990 28.7370 283° West 411 473 36,000  Level FlightAware ADS-B
Mon 10:15:34 AM 59.7130 28.6120 283° West 411 473 36,000  Level FlightAware ADS-B
Mon 10:16:11 AM 59.7280 28.4860 283° West 411 473 36,000  Level FlightAware ADS-B
Mon 10:16:46 AM 59.7430 28.3510 282° West 410 472 36,000  Level FlightAware ADS-B
Mon 10:17:20 AM 59.7580 28.2220 283° West 409 471 36,000  Level FlightAware ADS-B
Mon 10:17:55 AM 59.7720 28.0930 282° West 409 471 36,000  Level FlightAware ADS-B
Mon 10:18:31 AM 59.7860 27.9630 282° West 410 472 36,000  Level FlightAware ADS-B
Mon 10:19:08 AM 59.8010 27.8300 283° West 409 471 36,000  Level FlightAware ADS-B
Mon 10:19:38 AM 59.8130 27.7170 282° West 408 470 36,000  Level FlightAware ADS-B
Mon 10:20:18 AM 59.8260 27.5980 282° West 406 467 36,000  Level FlightAware ADS-B
Mon 10:20:48 AM 59.8400 27.4630 282° West 403 464 36,000  Level FlightAware ADS-B
Mon 10:21:25 AM 59.8540 27.3310 282° West 400 460 36,000  Level FlightAware ADS-B
Mon 10:22:01 AM 59.8670 27.2030 281° West 398 458 36,000  Level FlightAware ADS-B
Mon 10:22:37 AM 59.8800 27.0750 281° West 397 457 36,000  Level FlightAware ADS-B
Mon 10:23:09 AM 59.8920 26.9570 282° West 398 458 36,000  Level FlightAware ADS-B
Mon 10:23:46 AM 59.9050 26.8290 282° West 399 459 36,000  Level FlightAware ADS-B
Mon 10:24:22 AM 59.9190 26.6940 282° West 399 459 36,000  Level FlightAware ADS-B
Mon 10:24:58 AM 59.9310 26.5710 281° West 399 459 36,000  Level FlightAware ADS-B
Mon 10:25:29 AM 59.9420 26.4540 281° West 399 459 36,000  Level FlightAware ADS-B
Mon 10:26:04 AM 59.9570 26.3300 284° West 397 457 36,000  Level FlightAware ADS-B
Mon 10:26:37 AM 59.9790 26.2180 291° West 395 455 36,000  Level FlightAware ADS-B
Mon 10:27:12 AM 60.0070 26.1050 296° West 395 455 36,000  Level FlightAware ADS-B
Mon 10:27:51 AM 60.0400 25.9810 298° West 395 455 36,000  Level FlightAware ADS-B
Mon 10:28:26 AM 60.0740 25.8750 303° West 396 456 36,000  Level FlightAware ADS-B
Mon 10:29:03 AM 60.1110 25.7560 302° West 398 458 36,000  Level FlightAware ADS-B
Mon 10:29:35 AM 60.1420 25.6550 302° West 396 456 36,000  Level FlightAware ADS-B
Mon 10:30:10 AM 60.1740 25.5470 301° West 393 452 36,000  Level FlightAware ADS-B
Mon 10:30:47 AM 60.2090 25.4330 302° West 392 451 36,000  Level FlightAware ADS-B
Mon 10:31:21 AM 60.2410 25.3240 301° West 391 450 36,000  Level FlightAware ADS-B
Mon 10:31:55 AM 60.2730 25.2180 301° West 390 449 36,000  Level FlightAware ADS-B
Mon 10:32:30 AM 60.3050 25.1100 301° West 388 447 36,000  Level FlightAware ADS-B
Mon 10:33:07 AM 60.3380 24.9950 300° West 388 447 36,000  Level FlightAware ADS-B
Mon 10:33:40 AM 60.3680 24.8940 301° West 387 445 36,000  Level FlightAware ADS-B
Mon 10:34:12 AM 60.3970 24.7940 300° West 388 447 36,000  Level FlightAware ADS-B
Mon 10:34:49 AM 60.4310 24.6790 301° West 388 447 36,000  Level FlightAware ADS-B
Mon 10:35:26 AM 60.4650 24.5620 301° West 388 447 36,000  Level FlightAware ADS-B
Mon 10:36:02 AM 60.4960 24.4520 300° West 388 447 36,000  Level FlightAware ADS-B
Mon 10:36:35 AM 60.5250 24.3500 300° West 389 448 36,000  Level FlightAware ADS-B
Mon 10:37:07 AM 60.5560 24.2440 301° West 389 448 36,000  Level FlightAware ADS-B
Mon 10:37:42 AM 60.5870 24.1350 300° West 388 447 36,000  Level FlightAware ADS-B
Mon 10:38:20 AM 60.6200 24.0170 300° West 386 444 36,000  Level FlightAware ADS-B
Mon 10:38:56 AM 60.6530 23.9000 300° West 385 443 36,000  Level FlightAware ADS-B
Mon 10:39:33 AM 60.6840 23.7870 299° West 386 444 36,000  Level FlightAware ADS-B
Mon 10:40:05 AM 60.7130 23.6830 300° West 388 447 36,000  Level FlightAware ADS-B
Mon 10:40:40 AM 60.7440 23.5730 300° West 390 449 36,000  Level FlightAware ADS-B
Mon 10:41:14 AM 60.7740 23.4630 299° West 389 448 36,000  Level FlightAware ADS-B
Mon 10:41:50 AM 60.8050 23.3500 299° West 389 448 36,000  Level FlightAware ADS-B
Mon 10:42:28 AM 60.8390 23.2260 299° West 390 449 36,000  Level FlightAware ADS-B
Mon 10:42:59 AM 60.8650 23.1300 299° West 391 450 36,000  Level FlightAware ADS-B
Mon 10:43:35 AM 60.8980 23.0090 299° West 390 449 36,000  Level FlightAware ADS-B
Mon 10:44:12 AM 60.9290 22.8910 298° West 391 450 36,000  Level FlightAware ADS-B
Mon 10:44:46 AM 60.9590 22.7800 299° West 389 448 36,000  Level FlightAware ADS-B
Mon 10:45:23 AM 60.9920 22.6580 299° West 387 445 36,000  Level FlightAware ADS-B
Mon 10:45:56 AM 61.0190 22.5530 298° West 386 444 36,000  Level FlightAware ADS-B
Mon 10:46:30 AM 61.0490 22.4400 299° West 387 445 36,000  Level FlightAware ADS-B
Mon 10:47:08 AM 61.0800 22.3190 298° West 388 447 36,000  Level FlightAware ADS-B
Mon 10:47:38 AM 61.1060 22.2210 299° West 390 449 36,000  Level FlightAware ADS-B
Mon 10:48:15 AM 61.1380 22.0990 299° West 393 452 36,000  Level FlightAware ADS-B
Mon 10:48:53 AM 61.1700 21.9720 298° West 395 455 36,000  Level FlightAware ADS-B
Mon 10:49:16 AM 61.1899 21.8959 299° West 396 456 36,000  Level FlightAware ADS-B
Mon 10:49:46 AM 61.2134 21.8039 298° West 396 456 36,000  Level FlightAware ADS-B
Mon 10:50:35 AM 61.2570 21.6320 298° West 396 456 36,000  Level FlightAware ADS-B
Mon 10:50:43 AM 61.2628 21.6097 298° West 398 458 36,000  Level FlightAware ADS-B
Mon 10:51:43 AM 61.3150 21.4030 298° West 398 458 36,000  Level FlightAware ADS-B
Mon 10:52:22 AM 61.3482 21.2695 297° West 399 459 36,000  Level FlightAware ADS-B
Mon 10:52:55 AM 61.3760 21.1590 298° West 399 459 36,000  Level FlightAware ADS-B
Mon 10:53:31 AM 61.4060 21.0360 297° West 399 459 36,000  Level FlightAware ADS-B
Mon 10:54:04 AM 61.4330 20.9280 298° West 398 458 36,000  Level FlightAware ADS-B
Mon 10:54:10 AM 61.4388 20.9024 296° West 398 458 36,000  Level FlightAware ADS-B
Mon 10:54:48 AM 61.4702 20.7743 297° West 398 458 36,000  Level FlightAware ADS-B
Mon 10:55:23 AM 61.4995 20.6532 297° West 398 458 36,000  Level FlightAware ADS-B
Mon 10:55:53 AM 61.5230 20.5540 296° West 396 456 36,000  Level FlightAware ADS-B
Mon 10:55:57 AM 61.5277 20.5366 299° West 396 456 36,000  Level FlightAware ADS-B
Mon 10:56:28 AM 61.5506 20.4412 297° West 396 456 36,000  Level FlightAware ADS-B
Mon 10:57:01 AM 61.5800 20.3170 296° West 393 452 36,000  Level FlightAware ADS-B
Mon 10:57:36 AM 61.6080 20.2000 297° West 393 452 36,000  Level FlightAware ADS-B
Mon 10:58:08 AM 61.6350 20.0880 297° West 393 452 36,000  Level FlightAware ADS-B
Mon 10:58:43 AM 61.6630 19.9690 296° West 393 452 36,000  Level FlightAware ADS-B
Mon 10:59:10 AM 61.6836 19.8792 296° West 393 452 36,000  Level FlightAware ADS-B
Mon 10:59:50 AM 61.7149 19.7445 296° West 394 453 36,000  Level FlightAware ADS-B
Mon 11:00:27 AM 61.7440 19.6170 296° West 394 453 36,000  Level FlightAware ADS-B
Mon 11:01:05 AM 61.7750 19.4830 296° West 393 452 36,000  Level FlightAware ADS-B
Mon 11:01:42 AM 61.8070 19.3570 298° West 392 451 36,000  Level FlightAware ADS-B
Mon 11:02:17 AM 61.8360 19.2400 298° West 393 452 36,000  Level FlightAware ADS-B
Mon 11:02:47 AM 61.8610 19.1370 297° West 393 452 36,000  Level FlightAware ADS-B
Mon 11:03:26 AM 61.8940 19.0040 298° West 391 450 36,000  Level FlightAware ADS-B
Mon 11:04:03 AM 61.9240 18.8780 297° West 390 449 36,000  Level FlightAware ADS-B
Mon 11:04:36 AM 61.9510 18.7670 297° West 390 449 36,000  Level FlightAware ADS-B
Mon 11:05:13 AM 61.9820 18.6400 298° West 392 451 36,000  Level FlightAware ADS-B
Mon 11:05:45 AM 62.0080 18.5280 296° West 394 453 36,000  Level FlightAware ADS-B
Mon 11:06:19 AM 62.0350 18.4140 297° West 393 452 36,000  Level FlightAware ADS-B
Mon 11:06:59 AM 62.0680 18.2750 297° West 395 455 36,000  Level FlightAware ADS-B
Mon 11:07:29 AM 62.0930 18.1690 297° West 395 455 36,000  Level FlightAware ADS-B
Mon 11:08:07 AM 62.1230 18.0410 297° West 398 458 36,000  Level FlightAware ADS-B
Mon 11:08:43 AM 62.1520 17.9150 296° West 401 461 36,000  Level FlightAware ADS-B
Mon 11:09:14 AM 62.1780 17.8000 296° West 404 465 36,000  Level FlightAware ADS-B
Mon 11:09:45 AM 62.2030 17.6940 297° West 407 468 36,000  Level FlightAware ADS-B
Mon 11:10:26 AM 62.2350 17.5390 294° West 407 468 36,000  Level FlightAware ADS-B
Mon 11:11:00 AM 62.2570 17.4100 290° West 408 470 36,000  Level FlightAware ADS-B
Mon 11:11:36 AM 62.2750 17.3030 290° West 409 471 36,000  Level FlightAware ADS-B
Mon 11:12:09 AM 62.3000 17.1580 290° West 409 471 36,000  Level FlightAware ADS-B
Mon 11:12:46 AM 62.3260 17.0050 290° West 408 470 36,000  Level FlightAware ADS-B
Mon 11:13:22 AM 62.3490 16.8680 290° West 406 467 36,000  Level FlightAware ADS-B
Mon 11:13:54 AM 62.3690 16.7450 289° West 406 467 36,000  Level FlightAware ADS-B
Mon 11:14:32 AM 62.3930 16.6010 290° West 405 466 36,000  Level FlightAware ADS-B
Mon 11:15:04 AM 62.4120 16.4820 289° West 401 461 36,000  Level FlightAware ADS-B
Mon 11:15:42 AM 62.4350 16.3420 290° West 399 459 36,000  Level FlightAware ADS-B
Mon 11:16:17 AM 62.4560 16.2100 289° West 395 455 36,000  Level FlightAware ADS-B
Mon 11:16:50 AM 62.4760 16.0860 289° West 394 453 36,000  Level FlightAware ADS-B
Mon 11:17:26 AM 62.4970 15.9520 289° West 393 452 36,000  Level FlightAware ADS-B
Mon 11:17:58 AM 62.5160 15.8340 289° West 392 451 36,000  Level FlightAware ADS-B
Mon 11:18:33 AM 62.5360 15.7060 289° West 392 451 36,000  Level FlightAware ADS-B
Mon 11:19:08 AM 62.5560 15.5760 289° West 393 452 36,000  Level FlightAware ADS-B
Mon 11:19:46 AM 62.5780 15.4340 289° West 393 452 36,000  Level FlightAware ADS-B
Mon 11:20:22 AM 62.5980 15.2980 288° West 392 451 36,000  Level FlightAware ADS-B
Mon 11:20:56 AM 62.6180 15.1720 289° West 390 449 36,000  Level FlightAware ADS-B
Mon 11:21:30 AM 62.6360 15.0480 288° West 389 448 36,000  Level FlightAware ADS-B
Mon 11:22:06 AM 62.6560 14.9150 288° West 388 447 36,000  Level FlightAware ADS-B
Mon 11:22:38 AM 62.6740 14.7960 288° West 388 447 36,000  Level FlightAware ADS-B
Mon 11:23:14 AM 62.6940 14.6600 288° West 388 447 36,000  Level FlightAware ADS-B
Mon 11:23:52 AM 62.7140 14.5190 287° West 389 448 36,000  Level FlightAware ADS-B
Mon 11:24:26 AM 62.7330 14.3930 288° West 389 448 36,000  Level FlightAware ADS-B
Mon 11:25:00 AM 62.7510 14.2650 287° West 387 445 36,000  Level FlightAware ADS-B
Mon 11:25:34 AM 62.7680 14.1450 287° West 384 442 36,000  Level FlightAware ADS-B
Mon 11:26:00 AM 62.7820 14.0460 287° West 383 441 36,000  Level FlightAware ADS-B
Mon 11:26:36 AM 62.8010 13.9130 287° West 378 435 36,000  Level FlightAware ADS-B
Mon 11:27:12 AM 62.8190 13.7830 287° West 375 432 36,000  Level FlightAware ADS-B
Mon 11:27:48 AM 62.8370 13.6540 287° West 374 430 36,000  Level FlightAware ADS-B
Mon 11:28:22 AM 62.8540 13.5310 287° West 373 429 36,000  Level FlightAware ADS-B
Mon 11:29:00 AM 62.8730 13.3930 287° West 375 432 36,000  Level FlightAware ADS-B
Mon 11:29:35 AM 62.8900 13.2630 286° West 375 432 36,000  Level FlightAware ADS-B
Mon 11:30:04 AM 62.9040 13.1620 287° West 376 433 36,000  Level FlightAware ADS-B
Mon 11:30:44 AM 62.9240 13.0150 287° West 375 432 36,000  Level FlightAware ADS-B
Mon 11:31:18 AM 62.9400 12.8890 286° West 377 434 36,000  Level FlightAware ADS-B
Mon 11:31:54 AM 62.9570 12.7590 286° West 378 435 36,000  Level FlightAware ADS-B
Mon 11:32:30 AM 62.9750 12.6240 286° West 381 438 36,000  Level FlightAware ADS-B
Mon 11:33:06 AM 62.9920 12.4890 286° West 383 441 36,000  Level FlightAware ADS-B
Mon 11:33:38 AM 63.0080 12.3700 287° West 381 438 36,000  Level FlightAware ADS-B
Mon 11:34:13 AM 63.0240 12.2450 286° West 385 443 36,000  Level FlightAware ADS-B
Mon 11:34:50 AM 63.0420 12.0990 285° West 385 443 36,000  Level FlightAware ADS-B
Mon 11:35:26 AM 63.0590 11.9630 285° West 382 440 36,000  Level FlightAware ADS-B
Mon 11:35:58 AM 63.0740 11.8440 286° West 383 441 36,000  Level FlightAware ADS-B
Mon 11:36:34 AM 63.0900 11.7100 285° West 381 438 36,000  Level FlightAware ADS-B
Mon 11:37:06 AM 63.1050 11.5900 285° West 380 437 36,000  Level FlightAware ADS-B
Mon 11:37:42 AM 63.1210 11.4570 285° West 381 438 36,000  Level FlightAware ADS-B
Mon 11:38:18 AM 63.1370 11.3200 285° West 381 438 36,000  Level FlightAware ADS-B
Mon 11:38:54 AM 63.1530 11.1830 285° West 381 438 36,000  Level FlightAware ADS-B
Mon 11:39:30 AM 63.1690 11.0500 285° West 380 437 36,000  Level FlightAware ADS-B
Mon 11:40:02 AM 63.1830 10.9290 284° West 377 434 36,000  Level FlightAware ADS-B
Mon 11:40:38 AM 63.1990 10.7940 285° West 374 430 36,000  Level FlightAware ADS-B
Mon 11:41:11 AM 63.2120 10.6750 284° West 373 429 36,000  Level FlightAware ADS-B
Mon 11:41:51 AM 63.2290 10.5240 284° West 371 427 36,000  Level FlightAware ADS-B
Mon 11:42:24 AM 63.2430 10.4040 285° West 372 428 36,000  Level FlightAware ADS-B
Mon 11:42:56 AM 63.2560 10.2850 284° West 372 428 36,000  Level FlightAware ADS-B
Mon 11:43:33 AM 63.2710 10.1480 284° West 371 427 36,000  Level FlightAware ADS-B
Mon 11:44:07 AM 63.2850 10.0230 284° West 371 427 36,000  Level FlightAware ADS-B
Mon 11:44:45 AM 63.3000 9.8850 284° West 373 429 36,000  Level FlightAware ADS-B
Mon 11:45:19 AM 63.3140 9.7540 283° West 373 429 36,000  Level FlightAware ADS-B
Mon 11:45:54 AM 63.3280 9.6250 284° West 370 426 36,000  Level FlightAware ADS-B
Mon 11:46:31 AM 63.3420 9.4900 283° West 371 427 36,000  Level FlightAware ADS-B
Mon 11:47:05 AM 63.3550 9.3610 283° West 373 429 36,000  Level FlightAware ADS-B
Mon 11:47:38 AM 63.3680 9.2380 283° West 376 433 36,000  Level FlightAware ADS-B
Mon 11:48:16 AM 63.3820 9.0980 283° West 376 433 36,000  Level FlightAware ADS-B
Mon 11:48:48 AM 63.3950 8.9750 283° West 375 432 36,000  Level FlightAware ADS-B
Mon 11:49:24 AM 63.4090 8.8380 283° West 374 430 36,000  Level FlightAware ADS-B
Mon 11:49:59 AM 63.4220 8.7050 282° West 374 430 36,000  Level FlightAware ADS-B
Mon 11:50:32 AM 63.4340 8.5830 282° West 374 430 36,000  Level FlightAware ADS-B
Mon 11:51:08 AM 63.4470 8.4480 282° West 376 433 36,000  Level FlightAware ADS-B
Mon 11:51:43 AM 63.4590 8.3150 281° West 376 433 36,000  Level FlightAware ADS-B
Mon 11:52:19 AM 63.4730 8.1780 283° West 378 435 36,000  Level FlightAware ADS-B
Mon 11:52:54 AM 63.4850 8.0450 281° West 379 436 36,000  Level FlightAware ADS-B
Mon 11:53:31 AM 63.4980 7.9020 282° West 380 437 36,000  Level FlightAware ADS-B
Mon 11:54:04 AM 63.5100 7.7770 282° West 378 435 36,000  Level FlightAware ADS-B
Mon 11:54:38 AM 63.5220 7.6480 282° West 378 435 36,000  Level FlightAware ADS-B
Mon 11:55:13 AM 63.5340 7.5140 281° West 376 433 36,000  Level FlightAware ADS-B
Mon 11:55:48 AM 63.5460 7.3800 281° West 376 433 36,000  Level FlightAware ADS-B
Mon 11:56:23 AM 63.5570 7.2480 281° West 376 433 36,000  Level FlightAware ADS-B
Mon 11:57:03 AM 63.5710 7.0910 281° West 377 434 36,000  Level FlightAware ADS-B
Mon 11:57:38 AM 63.5820 6.9580 281° West 378 435 36,000  Level FlightAware ADS-B
Mon 11:58:13 AM 63.5940 6.8230 281° West 379 436 36,000  Level FlightAware ADS-B
Mon 11:58:53 AM 63.6070 6.6690 281° West 380 437 36,000  Level FlightAware ADS-B
Mon 11:59:26 AM 63.6170 6.5420 280° West 380 437 36,000  Level FlightAware ADS-B
Mon 12:00:03 PM 63.6290 6.3980 281° West 380 437 36,000  Level FlightAware ADS-B
Mon 12:00:34 PM 63.6390 6.2720 280° West 380 437 36,000  Level FlightAware ADS-B
Mon 12:01:11 PM 63.6500 6.1310 280° West 380 437 36,000  Level FlightAware ADS-B
Mon 12:01:44 PM 63.6610 6.0030 281° West 379 436 36,000  Level FlightAware ADS-B
Mon 12:02:23 PM 63.6720 5.8540 280° West 378 435 36,000  Level FlightAware ADS-B
Mon 12:02:57 PM 63.6820 5.7210 280° West 377 434 36,000  Level FlightAware ADS-B
Mon 12:03:32 PM 63.6920 5.5850 279° West 377 434 36,000  Level FlightAware ADS-B
Mon 12:04:07 PM 63.7020 5.4560 280° West 377 434 36,000  Level FlightAware ADS-B
Mon 12:04:39 PM 63.7120 5.3270 280° West 377 434 36,000  Level FlightAware ADS-B
Mon 12:05:14 PM 63.7210 5.1940 279° West 377 434 36,000  Level FlightAware ADS-B
Mon 12:05:46 PM 63.7300 5.0690 279° West 378 435 36,000  Level FlightAware ADS-B
Mon 12:06:16 PM 63.7390 4.9500 280° West 378 435 36,000  Level FlightAware ADS-B
Mon 12:06:53 PM 63.7490 4.8050 279° West 379 436 36,000  Level FlightAware ADS-B
Mon 12:07:28 PM 63.7580 4.6690 279° West 379 436 36,000  Level FlightAware ADS-B
Mon 12:08:04 PM 63.7680 4.5330 280° West 380 437 36,000  Level FlightAware ADS-B
Mon 12:08:39 PM 63.7770 4.3900 278° West 379 436 36,000  Level FlightAware ADS-B
Mon 12:09:13 PM 63.7860 4.2580 279° West 378 435 36,000  Level FlightAware ADS-B
Mon 12:09:47 PM 63.7940 4.1290 278° West 376 433 36,000  Level FlightAware ADS-B
Mon 12:10:22 PM 63.8030 3.9930 279° West 378 435 36,000  Level FlightAware ADS-B
Mon 12:11:00 PM 63.8120 3.8480 278° West 379 436 36,000  Level FlightAware ADS-B
Mon 12:11:33 PM 63.8180 3.7460 278° West 380 437 36,000  Level FlightAware ADS-B
Mon 12:12:08 PM 63.8280 3.5860 278° West 381 438 36,000  Level FlightAware ADS-B
Mon 12:12:44 PM 63.8370 3.4410 278° West 382 440 36,000  Level FlightAware ADS-B
Mon 12:13:21 PM 63.8460 3.2850 278° West 382 440 36,000  Level FlightAware ADS-B
Mon 12:13:56 PM 63.8530 3.1650 278° West 383 441 36,000  Level FlightAware ADS-B
Mon 12:14:29 PM 63.8610 3.0220 277° West 384 442 36,000  Level FlightAware ADS-B
Mon 12:15:03 PM 63.8690 2.8890 278° West 384 442 36,000  Level FlightAware ADS-B
Mon 12:15:36 PM 63.8760 2.7540 277° West 384 442 36,000  Level FlightAware ADS-B
Mon 12:16:14 PM 63.8840 2.6040 277° West 383 441 36,000  Level FlightAware ADS-B
Mon 12:16:51 PM 63.8920 2.4510 277° West 383 441 36,000  Level FlightAware ADS-B
Mon 12:17:21 PM 63.8990 2.3300 278° West 383 441 36,000  Level FlightAware ADS-B
Mon 12:17:59 PM 63.9060 2.1830 276° West 383 441 36,000  Level FlightAware ADS-B
Mon 12:18:48 PM 63.9160 1.9880 277° West 386 444 36,000  Level FlightAware ADS-B
Mon 12:19:28 PM 63.9220 1.8510 276° West 386 444 36,000  Level FlightAware ADS-B
Mon 12:20:13 PM 63.9320 1.6610 277° West 388 447 36,000  Level FlightAware ADS-B
Mon 12:20:50 PM 63.9380 1.5330 276° West 388 447 36,000  Level FlightAware ADS-B
Mon 12:21:30 PM 63.9460 1.3480 276° West 388 447 36,000  Level FlightAware ADS-B
Mon 12:22:06 PM 63.9520 1.2240 276° West 388 447 36,000  Level FlightAware ADS-B
Mon 12:22:40 PM 63.9570 1.1060 276° West 388 447 36,000  Level FlightAware ADS-B
Mon 12:23:15 PM 63.9650 0.9100 275° West 389 448 36,000  Level FlightAware ADS-B
Mon 12:23:56 PM 63.9720 0.7370 275° West 387 445 36,000  Level FlightAware ADS-B
Mon 12:24:30 PM 63.9770 0.6230 276° West 387 445 36,000  Level FlightAware ADS-B
Mon 12:25:06 PM 63.9810 0.4980 274° West 387 445 36,000  Level FlightAware ADS-B
Mon 12:25:42 PM 63.9890 0.3090 276° West 386 444 36,000  Level FlightAware ADS-B
Mon 12:26:21 PM 63.9940 0.1680 275° West 386 444 36,000  Level FlightAware ADS-B
Mon 12:27:00 PM 64.0010 -0.0080 275° West 388 447 36,000  Level FlightAware ADS-B
Mon 12:27:32 PM 64.0050 -0.1330 274° West 387 445 36,000  Level FlightAware ADS-B
Mon 12:28:08 PM 64.0100 -0.2770 275° West 388 447 36,000  Level FlightAware ADS-B
Mon 12:28:47 PM 64.0140 -0.4190 274° West 388 447 36,000  Level FlightAware ADS-B
Mon 12:29:24 PM 64.0190 -0.5910 274° West 390 449 36,000  Level FlightAware ADS-B
Mon 12:30:00 PM 64.0240 -0.7350 275° West 390 449 36,000  Level FlightAware ADS-B
Mon 12:30:36 PM 64.0280 -0.8850 274° West 391 450 36,000  Level FlightAware ADS-B
Mon 12:31:06 PM 64.0320 -1.0080 274° West 392 451 36,000  Level FlightAware ADS-B
Mon 12:31:46 PM 64.0360 -1.1770 273° West 393 452 36,000  Level FlightAware ADS-B
Mon 12:32:15 PM 64.0390 -1.2780 274° West 392 451 36,000  Level FlightAware ADS-B
Mon 12:32:53 PM 64.0420 -1.4110 273° West 392 451 36,000  Level FlightAware ADS-B
Mon 12:33:29 PM 64.0450 -1.5380 273° West 392 451 36,000  Level FlightAware ADS-B
Mon 12:34:06 PM 64.0500 -1.7530 273° West 395 455 36,000  Level FlightAware ADS-B
Mon 12:34:40 PM 64.0530 -1.8960 273° West 394 453 36,000  Level FlightAware ADS-B
Mon 12:35:10 PM 64.0560 -2.0190 273° West 394 453 36,000  Level FlightAware ADS-B
Mon 12:35:50 PM 64.0590 -2.1850 272° West 395 455 36,000  Level FlightAware ADS-B
Mon 12:36:24 PM 64.0620 -2.3260 273° West 395 455 36,000  Level FlightAware ADS-B
Mon 12:36:56 PM 64.0640 -2.4590 272° West 396 456 36,000  Level FlightAware ADS-B
Mon 12:37:36 PM 64.0670 -2.6180 273° West 395 455 36,000  Level FlightAware ADS-B
Mon 12:38:14 PM 64.0690 -2.7530 272° West 395 455 36,000  Level FlightAware ADS-B
Mon 12:38:51 PM 64.0710 -2.8840 272° West 395 455 36,000  Level FlightAware ADS-B
Mon 12:39:26 PM 64.0730 -3.0090 272° West 395 455 36,000  Level FlightAware ADS-B
Mon 12:40:10 PM 64.0760 -3.2650 272° West 397 457 36,000  Level FlightAware ADS-B
Mon 12:40:40 PM 64.0770 -3.3870 271° West 399 459 36,000  Level FlightAware ADS-B
Mon 12:41:18 PM 64.0790 -3.5480 272° West 401 461 36,000  Level FlightAware ADS-B
Mon 12:41:54 PM 64.0800 -3.7020 271° West 403 464 36,000  Level FlightAware ADS-B
Mon 12:42:30 PM 64.0820 -3.8570 272° West 404 465 36,000  Level FlightAware ADS-B
Mon 12:43:04 PM 64.0830 -3.9990 271° West 404 465 36,000  Level FlightAware ADS-B
Mon 12:43:38 PM 64.0840 -4.1430 271° West 404 465 36,000  Level FlightAware ADS-B
Mon 12:44:08 PM 64.0850 -4.2720 271° West 405 466 36,000  Level FlightAware ADS-B
Mon 12:44:40 PM 64.0850 -4.4060 270° West 406 467 36,000  Level FlightAware ADS-B
Mon 12:45:18 PM 64.0860 -4.5740 271° West 408 470 36,000  Level FlightAware ADS-B
Mon 12:45:52 PM 64.0860 -4.7170 270° West 409 471 36,000  Level FlightAware ADS-B
Mon 12:46:26 PM 64.0860 -4.8650 270° West 410 472 36,000  Level FlightAware ADS-B
Mon 12:47:04 PM 64.0860 -5.0290 270° West 409 471 36,000  Level FlightAware ADS-B
Mon 12:47:52 PM 64.0860 -5.2370 270° West 409 471 36,000  Level FlightAware ADS-B
Mon 12:48:28 PM 64.0860 -5.3900 270° West 410 472 36,000  Level FlightAware ADS-B
Mon 12:49:00 PM 64.0850 -5.5290 269° West 411 473 36,000  Level FlightAware ADS-B
Mon 12:49:36 PM 64.0850 -5.6840 270° West 411 473 36,000  Level FlightAware ADS-B
Mon 12:50:12 PM 64.0840 -5.8400 269° West 411 473 36,000  Level FlightAware ADS-B
Mon 12:50:48 PM 64.0830 -5.9970 269° West 411 473 36,000  Level FlightAware ADS-B
Mon 12:51:20 PM 64.0820 -6.1350 269° West 413 475 36,000  Level FlightAware ADS-B
Mon 12:51:56 PM 64.0810 -6.2890 269° West 415 478 36,000  Level FlightAware ADS-B
Mon 12:52:30 PM 64.0790 -6.4430 268° West 417 480 36,000  Level FlightAware ADS-B
Mon 12:53:05 PM 64.0780 -6.5980 269° West 418 481 36,000  Level FlightAware ADS-B
Mon 12:53:38 PM 64.0760 -6.7330 268° West 418 481 36,000  Level FlightAware ADS-B
Mon 12:54:12 PM 64.0740 -6.8910 268° West 419 482 36,000  Level FlightAware ADS-B
Mon 12:54:48 PM 64.0720 -7.0500 268° West 420 483 36,000  Level FlightAware ADS-B
Mon 12:55:26 PM 64.0690 -7.2160 268° West 420 483 36,000  Level FlightAware ADS-B
Mon 12:56:02 PM 64.0670 -7.3690 268° West 422 486 36,000  Level FlightAware ADS-B
Mon 12:56:34 PM 64.0650 -7.5120 268° West 427 491 36,000  Level FlightAware ADS-B
Mon 12:57:12 PM 64.0610 -7.6680 267° West 429 494 36,000  Level FlightAware ADS-B
Mon 12:57:50 PM 64.0580 -7.8150 267° West 429 494 36,000  Level FlightAware ADS-B
Mon 12:58:42 PM 64.0540 -8.0650 268° West 419 482 36,000  Level FlightAware ADS-B
Mon 12:59:19 PM 64.0500 -8.2040 266° West 419 482 36,000  Level FlightAware ADS-B
Mon 12:59:55 PM 64.0470 -8.3400 267° West 419 482 36,000  Level FlightAware ADS-B
Mon 01:00:31 PM 64.0440 -8.4750 267° West 419 482 36,000  Level FlightAware ADS-B
Mon 01:01:05 PM 64.0410 -8.6030 267° West 419 482 36,000  Level FlightAware ADS-B
Mon 01:01:42 PM 64.0380 -8.7420 267° West 419 482 36,000  Level FlightAware ADS-B
Mon 01:02:19 PM 64.0350 -8.8810 267° West 419 482 36,000  Level FlightAware ADS-B
Mon 01:02:55 PM 64.0320 -9.0160 267° West 419 482 36,000  Level FlightAware ADS-B
Mon 01:03:32 PM 64.0280 -9.1550 266° West 419 482 36,000  Level FlightAware ADS-B
Mon 01:04:06 PM 64.0260 -9.2830 268° West 419 482 36,000  Level FlightAware ADS-B
Mon 01:04:42 PM 64.0220 -9.4180 266° West 419 482 36,000  Level FlightAware ADS-B
Mon 01:05:16 PM 64.0190 -9.5460 267° West 419 482 36,000  Level FlightAware ADS-B
Mon 01:05:50 PM 64.0160 -9.6740 267° West 419 482 36,000  Level FlightAware ADS-B
Mon 01:06:26 PM 63.9930 -10.1220 264° West 421 484 36,000  Level FlightAware ADS-B
Mon 01:06:58 PM 63.9840 -10.2620 262° West 422 486 36,000  Level FlightAware ADS-B
Mon 01:07:34 PM 63.9730 -10.4190 261° West 422 486 36,000  Level FlightAware ADS-B
Mon 01:08:09 PM 63.9630 -10.5720 262° West 423 487 36,000  Level FlightAware ADS-B
Mon 01:08:42 PM 63.9540 -10.7160 262° West 425 489 36,000  Level FlightAware ADS-B
Mon 01:09:16 PM 63.9430 -10.8680 261° West 426 490 36,000  Level FlightAware ADS-B
Mon 01:09:56 PM 63.9310 -11.0440 261° West 424 488 36,000  Level FlightAware ADS-B
Mon 01:10:28 PM 63.9210 -11.1810 261° West 423 487 36,000  Level FlightAware ADS-B
Mon 01:11:00 PM 63.9110 -11.3240 261° West 420 483 36,000  Level FlightAware ADS-B
Mon 01:11:40 PM 63.8990 -11.4940 261° West 412 474 36,000  Level FlightAware ADS-B
Mon 01:12:14 PM 63.8880 -11.6400 260° West 410 472 36,000  Level FlightAware ADS-B
Mon 01:12:50 PM 63.8770 -11.7900 261° West 409 471 36,000  Level FlightAware ADS-B
Mon 01:13:24 PM 63.8660 -11.9340 260° West 411 473 36,000  Level FlightAware ADS-B
Mon 01:14:00 PM 63.8540 -12.0900 260° West 411 473 36,000  Level FlightAware ADS-B
Mon 01:14:35 PM 63.8430 -12.2280 260° West 410 472 36,000  Level FlightAware ADS-B
Mon 01:15:05 PM 63.8320 -12.3630 260° West 410 472 36,000  Level FlightAware ADS-B
Mon 01:15:45 PM 63.8190 -12.5280 260° West 409 471 36,000  Level FlightAware ADS-B
Mon 01:16:17 PM 63.8080 -12.6650 260° West 411 473 36,000 88 Level FlightAware ADS-B
Mon 01:16:53 PM 63.7950 -12.8180 259° West 414 476 36,100 338 Climbing FlightAware ADS-B
Mon 01:17:28 PM 63.7830 -12.9680 260° West 417 480 36,400 500 Climbing FlightAware ADS-B
Mon 01:18:05 PM 63.7700 -13.1210 259° West 419 482 36,700 448 Climbing FlightAware ADS-B
Mon 01:18:35 PM 63.7580 -13.2520 258° West 413 475 36,900 265 Climbing FlightAware ADS-B
Mon 01:19:13 PM 63.7440 -13.4130 259° West 414 476 37,000 81 Climbing FlightAware ADS-B
Mon 01:19:49 PM 63.7310 -13.5650 259° West 413 475 37,000  Level FlightAware ADS-B
Mon 01:20:25 PM 63.7180 -13.7150 259° West 414 476 37,000  Level FlightAware ADS-B
Mon 01:20:59 PM 63.7050 -13.8580 258° West 413 475 37,000  Level FlightAware ADS-B
Mon 01:21:35 PM 63.6910 -14.0110 258° West 412 474 37,000  Level FlightAware ADS-B
Mon 01:22:07 PM 63.6790 -14.1420 258° West 412 474 37,000  Level FlightAware ADS-B
Mon 01:22:37 PM 63.6660 -14.2730 257° West 414 476 37,000  Level FlightAware ADS-B
Mon 01:23:07 PM 63.6550 -14.3990 259° West 416 479 37,000  Level FlightAware ADS-B
Mon 01:23:46 PM 63.6390 -14.5610 258° West 418 481 37,000  Level FlightAware ADS-B
Mon 01:24:22 PM 63.6240 -14.7140 258° West 421 484 37,000  Level FlightAware ADS-B
Mon 01:24:58 PM 63.6100 -14.8650 258° West 421 484 37,000  Level FlightAware ADS-B
Mon 01:25:30 PM 63.5960 -15.0030 257° West 422 486 37,000  Level FlightAware ADS-B
Mon 01:26:06 PM 63.5810 -15.1560 258° West 421 484 37,000  Level FlightAware ADS-B
Mon 01:26:44 PM 63.5640 -15.3200 257° West 421 484 37,000  Level FlightAware ADS-B
Mon 01:27:18 PM 63.5490 -15.4640 257° West 421 484 37,000  Level FlightAware ADS-B
Mon 01:27:52 PM 63.5340 -15.6070 257° West 419 482 37,000  Level FlightAware ADS-B
Mon 01:28:26 PM 63.5190 -15.7510 257° West 418 481 37,000  Level FlightAware ADS-B
Mon 01:29:02 PM 63.5030 -15.9020 257° West 418 481 37,000  Level FlightAware ADS-B
Mon 01:29:35 PM 63.4880 -16.0410 256° West 417 480 37,000  Level FlightAware ADS-B
Mon 01:30:14 PM 63.4730 -16.1870 257° West 416 479 37,000  Level FlightAware ADS-B
Mon 01:30:46 PM 63.4570 -16.3340 256° West 415 478 37,000  Level FlightAware ADS-B
Mon 01:31:23 PM 63.4390 -16.4910 256° West 415 478 37,000  Level FlightAware ADS-B
Mon 01:31:56 PM 63.4240 -16.6250 256° West 414 476 37,000  Level FlightAware ADS-B
Mon 01:32:34 PM 63.4060 -16.7830 256° West 413 475 37,000  Level FlightAware ADS-B
Mon 01:33:09 PM 63.3900 -16.9290 256° West 413 475 37,000  Level FlightAware ADS-B
Mon 01:33:41 PM 63.3750 -17.0560 255° West 414 476 37,000  Level FlightAware ADS-B
Mon 01:34:18 PM 63.3570 -17.2130 256° West 414 476 37,000  Level FlightAware ADS-B
Mon 01:34:55 PM 63.3390 -17.3650 255° West 414 476 37,000  Level FlightAware ADS-B
Mon 01:35:27 PM 63.3240 -17.4930 255° West 414 476 37,000  Level FlightAware ADS-B
Mon 01:36:03 PM 63.3060 -17.6410 255° West 415 478 37,000  Level FlightAware ADS-B
Mon 01:36:39 PM 63.2880 -17.7900 255° West 416 479 37,000  Level FlightAware ADS-B
Mon 01:37:13 PM 63.2720 -17.9230 255° West 415 478 37,000  Level FlightAware ADS-B
Mon 01:37:49 PM 63.2540 -18.0700 255° West 415 478 37,000  Level FlightAware ADS-B
Mon 01:38:25 PM 63.2350 -18.2230 255° West 417 480 37,000  Level FlightAware ADS-B
Mon 01:38:59 PM 63.2180 -18.3620 255° West 417 480 37,000  Level FlightAware ADS-B
Mon 01:39:35 PM 63.1990 -18.5110 254° West 416 479 37,000  Level FlightAware ADS-B
Mon 01:40:07 PM 63.1820 -18.6430 254° West 416 479 37,000  Level FlightAware ADS-B
Mon 01:40:41 PM 63.1640 -18.7800 254° West 418 481 37,000  Level FlightAware ADS-B
Mon 01:41:17 PM 63.1450 -18.9310 254° West 419 482 37,000  Level FlightAware ADS-B
Mon 01:41:56 PM 63.1230 -19.0920 253° West 420 483 37,000  Level FlightAware ADS-B
Mon 01:42:29 PM 63.1060 -19.2250 254° West 419 482 37,000  Level FlightAware ADS-B
Mon 01:43:05 PM 63.0860 -19.3720 253° West 420 483 37,000  Level FlightAware ADS-B
Mon 01:43:36 PM 63.0690 -19.5030 254° West 421 484 37,000  Level FlightAware ADS-B
Mon 01:44:11 PM 63.0500 -19.6420 253° West 422 486 37,000  Level FlightAware ADS-B
Mon 01:44:48 PM 63.0280 -19.7970 253° West 423 487 37,000  Level FlightAware ADS-B
Mon 01:45:23 PM 63.0090 -19.9400 254° West 423 487 37,000  Level FlightAware ADS-B
Mon 01:46:01 PM 62.9940 -20.0990 258° West 427 491 37,000  Level FlightAware ADS-B
Mon 01:46:35 PM 62.9850 -20.2450 262° West 426 490 37,000  Level FlightAware ADS-B
Mon 01:47:08 PM 62.9760 -20.3850 262° West 426 490 37,000  Level FlightAware ADS-B
Mon 01:47:41 PM 62.9660 -20.5300 261° West 425 489 37,000  Level FlightAware ADS-B
Mon 01:48:20 PM 62.9560 -20.6840 262° West 423 487 37,000  Level FlightAware ADS-B
Mon 01:48:56 PM 62.9460 -20.8360 262° West 422 486 37,000  Level FlightAware ADS-B
Mon 01:49:28 PM 62.9370 -20.9710 262° West 419 482 37,000  Level FlightAware ADS-B
Mon 01:50:04 PM 62.9260 -21.1240 261° West 417 480 37,000  Level FlightAware ADS-B
Mon 01:50:40 PM 62.9160 -21.2750 262° West 417 480 37,000  Level FlightAware ADS-B
Mon 01:51:19 PM 62.9040 -21.4310 260° West 417 480 37,000  Level FlightAware ADS-B
Mon 01:51:56 PM 62.8930 -21.5890 261° West 416 479 37,000  Level FlightAware ADS-B
Mon 01:52:30 PM 62.8830 -21.7260 261° West 414 476 37,000  Level FlightAware ADS-B
Mon 01:53:06 PM 62.8710 -21.8750 260° West 412 474 37,000  Level FlightAware ADS-B
Mon 01:53:43 PM 62.8590 -22.0320 261° West 412 474 37,000  Level FlightAware ADS-B
Mon 01:54:14 PM 62.8500 -22.1530 261° West 411 473 37,000  Level FlightAware ADS-B
Mon 01:54:52 PM 62.8380 -22.3130 261° West 412 474 37,000  Level FlightAware ADS-B
Mon 01:55:24 PM 62.8270 -22.4500 260° West 413 475 37,000  Level FlightAware ADS-B
Mon 01:56:00 PM 62.8150 -22.5920 260° West 415 478 37,000  Level FlightAware ADS-B
Mon 01:56:37 PM 62.8030 -22.7390 260° West 415 478 37,000  Level FlightAware ADS-B
Mon 01:57:13 PM 62.7900 -22.8930 260° West 416 479 37,000  Level FlightAware ADS-B
Mon 01:57:43 PM 62.7810 -23.0130 261° West 416 479 37,000  Level FlightAware ADS-B
Mon 01:58:21 PM 62.7670 -23.1720 259° West 417 480 37,000  Level FlightAware ADS-B
Mon 01:58:58 PM 62.7540 -23.3270 260° West 417 480 37,000  Level FlightAware ADS-B
Mon 01:59:31 PM 62.7420 -23.4610 259° West 417 480 37,000  Level FlightAware ADS-B
Mon 02:00:04 PM 62.7300 -23.5990 259° West 417 480 37,000  Level FlightAware ADS-B
Mon 02:00:41 PM 62.7160 -23.7490 259° West 416 479 37,000  Level FlightAware ADS-B
Mon 02:01:17 PM 62.7030 -23.8950 259° West 415 478 37,000  Level FlightAware ADS-B
Mon 02:01:47 PM 62.6910 -24.0290 259° West 416 479 37,000  Level FlightAware ADS-B
Mon 02:02:25 PM 62.6770 -24.1840 259° West 416 479 37,000  Level FlightAware ADS-B
Mon 02:03:01 PM 62.6630 -24.3300 258° West 417 480 37,000  Level FlightAware ADS-B
Mon 02:03:37 PM 62.6490 -24.4790 259° West 417 480 37,000  Level FlightAware ADS-B
Mon 02:04:11 PM 62.6360 -24.6190 259° West 416 479 37,000  Level FlightAware ADS-B
Mon 02:04:46 PM 62.6210 -24.7630 257° West 415 478 37,000  Level FlightAware ADS-B
Mon 02:05:19 PM 62.6090 -24.8920 259° West 415 478 37,000  Level FlightAware ADS-B
Mon 02:05:55 PM 62.5940 -25.0410 258° West 413 475 37,000  Level FlightAware ADS-B
Mon 02:06:31 PM 62.5800 -25.1850 258° West 413 475 37,000  Level FlightAware ADS-B
Mon 02:07:08 PM 62.5650 -25.3320 258° West 414 476 37,000  Level FlightAware ADS-B
Mon 02:07:43 PM 62.5500 -25.4780 257° West 417 480 37,000  Level FlightAware ADS-B
Mon 02:08:22 PM 62.5330 -25.6350 257° West 416 479 37,000  Level FlightAware ADS-B
Mon 02:08:58 PM 62.5180 -25.7760 257° West 416 479 37,000  Level FlightAware ADS-B
Mon 02:09:32 PM 62.5030 -25.9180 257° West 417 480 37,000  Level FlightAware ADS-B
Mon 02:10:01 PM 62.4910 -26.0310 257° West 418 481 37,000  Level FlightAware ADS-B
Mon 02:10:43 PM 62.4720 -26.2090 257° West 417 480 37,000  Level FlightAware ADS-B
Mon 02:11:14 PM 62.4580 -26.3370 257° West 417 480 37,000  Level FlightAware ADS-B
Mon 02:11:35 PM 62.4490 -26.4170 256° West 417 480 37,000  Level FlightAware ADS-B
Mon 02:12:29 PM 62.4250 -26.6350 257° West 417 480 37,000 209 Level FlightAware ADS-B
Mon 02:13:01 PM 62.4110 -26.7560 256° West 417 480 37,300 455 Climbing FlightAware ADS-B
Mon 02:13:35 PM 62.3950 -26.8950 256° West 421 484 37,500 417 Climbing FlightAware ADS-B
Mon 02:14:13 PM 62.3780 -27.0450 256° West 422 486 37,800 405 Climbing FlightAware ADS-B
Mon 02:14:49 PM 62.3600 -27.2030 256° West 424 488 38,000 174 Climbing FlightAware ADS-B
Mon 02:15:22 PM 62.3440 -27.3340 255° West 426 490 38,000  Level FlightAware ADS-B
Mon 02:15:57 PM 62.3280 -27.4750 256° West 424 488 38,000  Level FlightAware ADS-B
Mon 02:16:34 PM 62.3090 -27.6310 255° West 422 486 38,000  Level FlightAware ADS-B
Mon 02:17:07 PM 62.2930 -27.7610 255° West 421 484 38,000  Level FlightAware ADS-B
Mon 02:17:45 PM 62.2740 -27.9160 255° West 421 484 38,000  Level FlightAware ADS-B
Mon 02:18:16 PM 62.2590 -28.0420 256° West 420 483 38,000  Level FlightAware ADS-B
Mon 02:18:53 PM 62.2410 -28.1860 255° West 420 483 38,000  Level FlightAware ADS-B
Mon 02:19:25 PM 62.2240 -28.3170 254° West 422 486 38,000  Level FlightAware ADS-B
Mon 02:20:02 PM 62.2060 -28.4620 255° West 423 487 38,000  Level FlightAware ADS-B
Mon 02:20:37 PM 62.1870 -28.6090 255° West 424 488 38,000  Level FlightAware ADS-B
Mon 02:21:32 PM 62.1600 -28.8160 254° West 424 488 38,000  Level FlightAware ADS-B
Mon 02:22:19 PM 62.1330 -29.0250 255° West 429 494 38,000  Level FlightAware ADS-B
Mon 02:23:03 PM 62.1090 -29.2040 254° West 431 496 38,000  Level FlightAware ADS-B
Mon 02:23:56 PM 62.0800 -29.4220 254° West 431 496 38,000  Level FlightAware ADS-B
Mon 02:24:26 PM 62.0630 -29.5430 253° West 431 496 38,000  Level FlightAware ADS-B
Mon 02:25:05 PM 62.0440 -29.6770 253° West 431 496 38,000  Level FlightAware ADS-B
Mon 02:25:38 PM 62.0230 -29.8350 254° West 433 498 38,000  Level FlightAware ADS-B
Mon 02:26:16 PM 62.0010 -29.9850 253° West 432 497 38,000  Level FlightAware ADS-B
Mon 02:27:01 PM 61.9710 -30.1390 248° West 432 497 38,000  Level FlightAware ADS-B
Mon 02:27:37 PM 61.9490 -30.2590 249° West 432 497 38,000  Level FlightAware ADS-B
Mon 02:28:14 PM 61.9250 -30.3830 248° West 432 497 38,000  Level FlightAware ADS-B
Mon 02:28:50 PM 61.9020 -30.5030 248° West 432 497 38,000  Level FlightAware ADS-B
Mon 02:29:27 PM 61.8790 -30.6270 249° West 432 497 38,000  Level FlightAware ADS-B
Mon 02:30:03 PM 61.8560 -30.7470 248° West 432 497 38,000  Level FlightAware ADS-B
Mon 02:30:37 PM 61.8340 -30.8610 248° West 432 497 38,000  Level FlightAware ADS-B
Mon 02:31:13 PM 61.8110 -30.9810 248° West 432 497 38,000  Level FlightAware ADS-B
Mon 02:31:49 PM 61.7880 -31.1010 248° West 432 497 38,000  Level FlightAware ADS-B
Mon 02:32:27 PM 61.7640 -31.2270 248° West 432 497 38,000  Level FlightAware ADS-B
Mon 02:33:15 PM 61.7330 -31.3870 248° West 432 497 38,000  Level FlightAware ADS-B
Mon 02:33:51 PM 61.7100 -31.5070 248° West 432 497 38,000  Level FlightAware ADS-B
Mon 02:34:27 PM 61.6870 -31.6260 248° West 432 497 38,000  Level FlightAware ADS-B
Mon 02:35:03 PM 61.6650 -31.7460 249° West 432 497 38,000  Level FlightAware ADS-B
Mon 02:35:39 PM 61.6420 -31.8650 248° West 432 497 38,000  Level FlightAware ADS-B
Mon 02:36:15 PM 61.6190 -31.9850 248° West 432 497 38,000  Level FlightAware ADS-B
Mon 02:38:00 PM 61.5343 -32.3642 245° Southwest  Level Estimated
Mon 02:39:00 PM 61.4855 -32.5799 245° Southwest  Level Estimated
Mon 02:40:00 PM 61.4363 -32.7950 245° Southwest  Level Estimated
Mon 02:41:00 PM 61.3868 -33.0094 244° Southwest  Level Estimated
Mon 02:42:00 PM 61.3369 -33.2231 244° Southwest  Level Estimated
Mon 02:43:00 PM 61.2867 -33.4361 244° Southwest  Level Estimated
Mon 02:44:00 PM 61.2361 -33.6485 244° Southwest  Level Estimated
Mon 02:45:00 PM 61.1853 -33.8601 244° Southwest  Level Estimated
Mon 02:46:00 PM 61.1341 -34.0711 243° Southwest  Level Estimated
Mon 02:47:00 PM 61.0826 -34.2814 243° Southwest  Level Estimated
Mon 02:48:00 PM 61.0307 -34.4910 243° Southwest  Level Estimated
Mon 02:49:00 PM 60.9785 -34.7000 243° Southwest  Level Estimated
Mon 02:50:00 PM 60.9260 -34.9082 243° Southwest  Level Estimated
Mon 02:51:00 PM 60.8732 -35.1157 242° Southwest  Level Estimated
Mon 02:52:00 PM 60.8201 -35.3226 242° Southwest  Level Estimated
Mon 02:53:00 PM 60.7667 -35.5288 242° Southwest  Level Estimated
Mon 02:54:00 PM 60.7129 -35.7342 242° Southwest  Level Estimated
Mon 02:55:00 PM 60.6588 -35.9390 242° Southwest  Level Estimated
Mon 02:56:00 PM 60.6044 -36.1432 242° Southwest  Level Estimated
Mon 02:57:00 PM 60.5497 -36.3466 241° Southwest  Level Estimated
Mon 02:58:00 PM 60.4947 -36.5493 241° Southwest  Level Estimated
Mon 02:59:00 PM 60.4394 -36.7513 241° Southwest  Level Estimated
Mon 03:00:00 PM 60.3838 -36.9527 241° Southwest  Level Estimated
Mon 03:01:00 PM 60.3279 -37.1534 241° Southwest  Level Estimated
Mon 03:02:00 PM 60.2716 -37.3533 241° Southwest  Level Estimated
Mon 03:03:00 PM 60.2151 -37.5526 240° Southwest  Level Estimated
Mon 03:04:00 PM 60.1583 -37.7512 240° Southwest  Level Estimated
Mon 03:05:00 PM 60.1012 -37.9491 240° Southwest  Level Estimated
Mon 03:06:00 PM 60.0438 -38.1464 240° Southwest  Level Estimated
Mon 03:07:00 PM 59.9861 -38.3429 240° Southwest  Level Estimated
Mon 03:08:00 PM 59.9281 -38.5387 239° Southwest  Level Estimated
Mon 03:09:00 PM 59.8698 -38.7339 239° Southwest  Level Estimated
Mon 03:10:00 PM 59.8112 -38.9284 239° Southwest  Level Estimated
Mon 03:11:00 PM 59.7524 -39.1222 239° Southwest  Level Estimated
Mon 03:12:00 PM 59.6932 -39.3153 239° Southwest  Level Estimated
Mon 03:13:00 PM 59.6338 -39.5078 239° Southwest  Level Estimated
Mon 03:14:00 PM 59.5741 -39.6995 238° Southwest  Level Estimated
Mon 03:15:00 PM 59.5141 -39.8906 238° Southwest  Level Estimated
Mon 03:16:00 PM 59.4538 -40.0810 238° Southwest  Level Estimated
Mon 03:17:00 PM 59.3933 -40.2707 238° Southwest  Level Estimated
Mon 03:18:00 PM 59.3325 -40.4597 238° Southwest  Level Estimated
Mon 03:19:00 PM 59.2714 -40.6481 238° Southwest  Level Estimated
Mon 03:20:00 PM 59.2100 -40.8357 237° Southwest  Level Estimated
Mon 03:21:00 PM 59.1484 -41.0228 237° Southwest  Level Estimated
Mon 03:22:00 PM 59.0865 -41.2091 237° Southwest  Level Estimated
Mon 03:23:00 PM 59.0243 -41.3947 237° Southwest  Level Estimated
Mon 03:24:00 PM 58.9619 -41.5797 237° Southwest  Level Estimated
Mon 03:25:00 PM 58.8992 -41.7640 237° Southwest  Level Estimated
Mon 03:26:00 PM 58.8363 -41.9477 237° Southwest  Level Estimated
Mon 03:27:00 PM 58.7731 -42.1307 236° Southwest  Level Estimated
Mon 03:28:00 PM 58.7096 -42.3130 236° Southwest  Level Estimated
Mon 03:29:00 PM 58.6459 -42.4947 236° Southwest  Level Estimated
Mon 03:30:00 PM 58.5819 -42.6756 236° Southwest  Level Estimated
Mon 03:31:00 PM 58.5177 -42.8560 236° Southwest  Level Estimated
Mon 03:32:00 PM 58.4532 -43.0356 236° Southwest  Level Estimated
Mon 03:33:00 PM 58.3885 -43.2146 235° Southwest  Level Estimated
Mon 03:34:00 PM 58.3235 -43.3930 235° Southwest  Level Estimated
Mon 03:35:00 PM 58.2583 -43.5707 235° Southwest  Level Estimated
Mon 03:36:00 PM 58.1928 -43.7477 235° Southwest  Level Estimated
Mon 03:37:00 PM 58.1271 -43.9241 235° Southwest  Level Estimated
Mon 03:38:00 PM 58.0611 -44.0999 235° Southwest  Level Estimated
Mon 03:39:00 PM 57.9949 -44.2750 235° Southwest  Level Estimated
Mon 03:40:00 PM 57.9285 -44.4494 234° Southwest  Level Estimated
Mon 03:41:00 PM 57.8618 -44.6232 234° Southwest  Level Estimated
Mon 03:42:00 PM 57.7949 -44.7963 234° Southwest  Level Estimated
Mon 03:43:00 PM 57.7277 -44.9689 234° Southwest  Level Estimated
Mon 03:44:00 PM 57.6603 -45.1407 234° Southwest  Level Estimated
Mon 03:45:00 PM 57.5927 -45.3120 234° Southwest  Level Estimated
Mon 03:46:00 PM 57.5248 -45.4826 234° Southwest  Level Estimated
Mon 03:47:00 PM 57.4568 -45.6525 233° Southwest  Level Estimated
Mon 03:48:00 PM 57.3885 -45.8218 233° Southwest  Level Estimated
Mon 03:49:00 PM 57.3199 -45.9905 233° Southwest  Level Estimated
Mon 03:50:00 PM 57.2512 -46.1586 233° Southwest  Level Estimated
Mon 03:51:00 PM 57.1822 -46.3260 233° Southwest  Level Estimated
Mon 03:52:00 PM 57.1130 -46.4929 233° Southwest  Level Estimated
Mon 03:53:00 PM 57.0436 -46.6591 233° Southwest  Level Estimated
Mon 03:54:00 PM 56.9739 -46.8246 232° Southwest  Level Estimated
Mon 03:55:00 PM 56.9041 -46.9896 232° Southwest  Level Estimated
Mon 03:56:00 PM 56.8340 -47.1539 232° Southwest  Level Estimated
Mon 03:57:00 PM 56.7637 -47.3176 232° Southwest  Level Estimated
Mon 03:58:00 PM 56.6932 -47.4808 232° Southwest  Level Estimated
Mon 03:59:00 PM 56.6225 -47.6432 232° Southwest  Level Estimated
Mon 04:00:00 PM 56.5515 -47.8051 232° Southwest  Level Estimated
Mon 04:01:00 PM 56.4804 -47.9664 231° Southwest  Level Estimated
Mon 04:02:00 PM 56.4090 -48.1271 231° Southwest  Level Estimated
Mon 04:03:00 PM 56.3375 -48.2872 231° Southwest  Level Estimated
Mon 04:04:00 PM 56.2657 -48.4467 231° Southwest  Level Estimated
Mon 04:05:00 PM 56.1938 -48.6055 231° Southwest  Level Estimated
Mon 04:06:00 PM 56.1216 -48.7638 231° Southwest  Level Estimated
Mon 04:07:00 PM 56.0492 -48.9215 231° Southwest  Level Estimated
Mon 04:08:00 PM 55.9767 -49.0786 230° Southwest  Level Estimated
Mon 04:09:00 PM 55.9039 -49.2351 230° Southwest  Level Estimated
Mon 04:10:00 PM 55.8309 -49.3910 230° Southwest  Level Estimated
Mon 04:11:00 PM 55.7578 -49.5464 230° Southwest  Level Estimated
Mon 04:12:00 PM 55.6844 -49.7011 230° Southwest  Level Estimated
Mon 04:13:00 PM 55.6109 -49.8553 230° Southwest  Level Estimated
Mon 04:14:00 PM 55.5371 -50.0089 230° Southwest  Level Estimated
Mon 04:15:00 PM 55.4632 -50.1619 230° Southwest  Level Estimated
Mon 04:16:00 PM 55.3891 -50.3144 229° Southwest  Level Estimated
Mon 04:17:00 PM 55.3148 -50.4662 229° Southwest  Level Estimated
Mon 04:18:00 PM 55.2403 -50.6175 229° Southwest  Level Estimated
Mon 04:19:00 PM 55.1656 -50.7683 229° Southwest  Level Estimated
Mon 04:20:00 PM 55.0907 -50.9184 229° Southwest  Level Estimated
Mon 04:21:00 PM 55.0157 -51.0681 229° Southwest  Level Estimated
Mon 04:22:00 PM 54.9404 -51.2171 229° Southwest  Level Estimated
Mon 04:23:00 PM 54.8650 -51.3656 229° Southwest  Level Estimated
Mon 04:24:00 PM 54.7894 -51.5135 228° Southwest  Level Estimated
Mon 04:25:00 PM 54.7136 -51.6609 228° Southwest  Level Estimated
Mon 04:26:00 PM 54.6376 -51.8078 228° Southwest  Level Estimated
Mon 04:27:00 PM 54.5615 -51.9541 228° Southwest  Level Estimated
Mon 04:28:00 PM 54.4852 -52.0998 228° Southwest  Level Estimated
Mon 04:29:00 PM 54.4087 -52.2450 228° Southwest  Level Estimated
Mon 04:29:22 PM 54.1167 -54.3667 227° Southwest 430 495 38,000  Level Moncton Center
Mon 04:30:00 PM 54.3321 -52.3897 228° Southwest  Level Estimated
Mon 04:30:22 PM 54.0500 -54.5333 236° Southwest 430 495 38,000  Level Moncton Center
Mon 04:31:00 PM 54.2552 -52.5338 228° Southwest  Level Estimated
Mon 04:31:22 PM 53.9667 -54.7000 230° Southwest 430 495 38,000  Level Moncton Center
Mon 04:32:00 PM 54.1782 -52.6774 228° Southwest  Level Estimated
Mon 04:32:22 PM 53.8833 -54.8500 227° Southwest 440 506 38,000  Level Moncton Center
Mon 04:33:00 PM 54.1011 -52.8204 227° Southwest  Level Estimated
Mon 04:33:22 PM 53.8167 -55.0167 236° Southwest 430 495 38,000  Level Moncton Center
Mon 04:34:00 PM 54.0237 -52.9629 227° Southwest  Level Estimated
Mon 04:34:22 PM 53.7667 -55.2000 245° Southwest 420 483 38,000  Level Moncton Center
Mon 04:35:22 PM 53.6500 -55.3000 207° Southwest 440 506 38,000  Level Moncton Center
Mon 04:36:22 PM 53.5333 -55.3833 203° Southwest 470 541 38,000  Level Moncton Center
Mon 04:37:22 PM 53.4167 -55.4667 203° Southwest 470 541 38,000  Level Moncton Center
Mon 04:38:27 PM 53.2833 -55.5500 200° South 470 541 38,000 -433 Level Gander Center
Mon 04:40:22 PM 53.0500 -55.7000 201° Southwest 480 552 36,700 -651 Descending Moncton Center
Mon 04:41:22 PM 52.9167 -55.7833 201° Southwest 480 552 36,100 -350 Descending Moncton Center
Mon 04:42:22 PM 52.7833 -55.8333 193° South 470 541 36,000 -50 Descending Moncton Center
Mon 04:43:22 PM 52.6833 -55.9167 207° Southwest 480 552 36,000  Level Moncton Center
Mon 04:44:22 PM 52.5500 -56.0000 201° Southwest 470 541 36,000  Level Moncton Center
Mon 04:46:00 PM 52.4108 -56.0876 201° Southwest  Level FlightAware Approximate
Mon 04:47:27 PM 52.1833 -56.2333 201° Southwest 460 529 36,000  Level Gander Center
Mon 04:48:22 PM 52.0667 -56.3000 199° South 470 541 36,000  Level Moncton Center
Mon 04:49:22 PM 51.9333 -56.3833 201° Southwest 470 541 36,000  Level Moncton Center
Mon 04:50:22 PM 51.8167 -56.4500 199° South 480 552 36,000  Level Moncton Center
Mon 04:51:22 PM 51.7000 -56.5333 204° Southwest 470 541 36,000  Level Moncton Center
Mon 04:52:22 PM 51.5833 -56.6000 200° South 470 541 36,000  Level Moncton Center
Mon 04:59:01 PM 50.7350 -57.1450 200° South 488 562 36,000  Level FlightAware ADS-B
Mon 04:59:36 PM 50.6600 -57.1880 200° South 490 564 36,000  Level FlightAware ADS-B
Mon 05:00:06 PM 50.6010 -57.2220 200° South 490 564 36,000  Level FlightAware ADS-B
Mon 05:00:41 PM 50.5240 -57.2650 200° South 489 563 36,000  Level FlightAware ADS-B
Mon 05:01:21 PM 50.4460 -57.3100 200° South 488 562 36,000  Level FlightAware ADS-B
Mon 05:01:56 PM 50.3670 -57.3550 200° South 487 560 36,000  Level FlightAware ADS-B
Mon 05:02:31 PM 50.2890 -57.3990 200° South 486 559 36,000  Level FlightAware ADS-B
Mon 05:03:06 PM 50.2150 -57.4400 200° South 487 560 36,000  Level FlightAware ADS-B
Mon 05:03:41 PM 50.1410 -57.4820 200° South 487 560 36,000  Level FlightAware ADS-B
Mon 05:04:16 PM 50.0660 -57.5230 199° South 487 560 36,000  Level FlightAware ADS-B
Mon 05:04:46 PM 50.0020 -57.5590 200° South 488 562 36,000  Level FlightAware ADS-B
Mon 05:05:26 PM 49.9200 -57.6050 200° South 490 564 36,000  Level FlightAware ADS-B
Mon 05:06:01 PM 49.8440 -57.6460 199° South 490 564 36,000  Level FlightAware ADS-B
Mon 05:06:27 PM 49.7833 -57.6500 192° South 490 564 36,000  Level Gander Center
Mon 05:06:36 PM 49.7680 -57.6880 200° South 490 564 36,000  Level FlightAware ADS-B
Mon 05:07:11 PM 49.6970 -57.7270 200° South 489 563 36,000  Level FlightAware ADS-B
Mon 05:07:41 PM 49.6300 -57.7640 200° South 488 562 36,000  Level FlightAware ADS-B
Mon 05:08:26 PM 49.5360 -57.8150 199° South 489 563 36,000  Level FlightAware ADS-B
Mon 05:11:00 PM 49.2997 -57.8945 192° South  Level FlightAware Approximate
Mon 05:11:56 PM 49.0890 -58.0560 192° South 485 558 36,000  Level FlightAware ADS-B
Mon 05:12:31 PM 49.0180 -58.0940 199° South 486 559 36,000  Level FlightAware ADS-B
Mon 05:13:06 PM 48.9410 -58.1350 199° South 487 560 36,000  Level FlightAware ADS-B
Mon 05:13:41 PM 48.8660 -58.1750 199° South 488 562 36,000  Level FlightAware ADS-B
Mon 05:14:16 PM 48.7920 -58.2140 199° South 488 562 36,000  Level FlightAware ADS-B
Mon 05:14:51 PM 48.7190 -58.2520 199° South 488 562 36,000  Level FlightAware ADS-B
Mon 05:15:26 PM 48.6440 -58.2910 199° South 487 560 36,000  Level FlightAware ADS-B
Mon 05:16:11 PM 48.5470 -58.3420 199° South 486 559 36,000  Level FlightAware ADS-B
Mon 05:16:41 PM 48.4890 -58.3720 199° South 486 559 36,000  Level FlightAware ADS-B
Mon 05:17:21 PM 48.3990 -58.4190 199° South 486 559 36,000  Level FlightAware ADS-B
Mon 05:18:01 PM 48.3140 -58.4630 199° South 485 558 36,000  Level FlightAware ADS-B
Mon 05:18:39 PM 48.2530 -58.4950 199° South 485 558 36,000  Level FlightAware ADS-B
Mon 05:19:13 PM 48.1730 -58.5360 199° South 485 558 36,000  Level FlightAware ADS-B
Mon 05:19:57 PM 48.0820 -58.5810 198° South 484 557 36,000  Level FlightAware ADS-B
Mon 05:20:36 PM 47.9920 -58.6280 199° South 483 556 36,000  Level FlightAware ADS-B
Mon 05:21:11 PM 47.9150 -58.6680 199° South 481 554 36,000  Level FlightAware ADS-B
Mon 05:22:06 PM 47.8030 -58.7230 198° South 481 554 36,000  Level FlightAware ADS-B
Mon 05:22:43 PM 47.7370 -58.7550 198° South 481 554 36,000  Level FlightAware ADS-B
Mon 05:23:24 PM 47.6410 -58.8050 199° South 480 552 36,000  Level FlightAware ADS-B
Mon 05:23:56 PM 47.5650 -58.8440 199° South 479 551 36,000  Level FlightAware ADS-B
Mon 05:24:31 PM 47.4990 -58.8780 199° South 478 550 36,000  Level FlightAware ADS-B
Mon 05:25:09 PM 47.4150 -58.9190 198° South 477 549 36,000  Level FlightAware ADS-B
Mon 05:25:45 PM 47.3370 -58.9580 199° South 477 549 36,000  Level FlightAware ADS-B
Mon 05:26:17 PM 47.2710 -58.9910 199° South 476 548 36,000  Level FlightAware ADS-B
Mon 05:26:54 PM 47.1950 -59.0280 198° South 476 548 36,000  Level FlightAware ADS-B
Mon 05:28:05 PM 47.0440 -59.1030 199° South 478 550 36,000  Level FlightAware ADS-B
Mon 05:28:37 PM 46.9760 -59.1360 198° South 479 551 36,000  Level FlightAware ADS-B
Mon 05:29:14 PM 46.9010 -59.1730 199° South 479 551 36,000  Level FlightAware ADS-B
Mon 05:29:49 PM 46.8260 -59.2090 198° South 477 549 36,000  Level FlightAware ADS-B
Mon 05:30:19 PM 46.7620 -59.2400 198° South 477 549 36,000  Level FlightAware ADS-B
Mon 05:31:01 PM 46.6760 -59.2820 199° South 477 549 36,000  Level FlightAware ADS-B
Mon 05:31:33 PM 46.6070 -59.3150 198° South 478 550 36,000  Level FlightAware ADS-B
Mon 05:32:09 PM 46.5330 -59.3510 199° South 479 551 36,000  Level FlightAware ADS-B
Mon 05:32:45 PM 46.4570 -59.3870 198° South 479 551 36,000  Level FlightAware ADS-B
Mon 05:33:17 PM 46.3890 -59.4200 199° South 478 550 36,000  Level FlightAware ADS-B
Mon 05:33:51 PM 46.3180 -59.4540 198° South 479 551 36,000  Level FlightAware ADS-B
Mon 05:34:28 PM 46.2420 -59.4900 198° South 480 552 36,000  Level FlightAware ADS-B
Mon 05:35:04 PM 46.1650 -59.5270 198° South 480 552 36,000  Level FlightAware ADS-B
Mon 05:35:36 PM 46.0970 -59.5590 198° South 480 552 36,000  Level FlightAware ADS-B
Mon 05:36:12 PM 46.0220 -59.5950 198° South 479 551 36,000  Level FlightAware ADS-B
Mon 05:36:46 PM 45.9500 -59.6280 198° South 478 550 36,000  Level FlightAware ADS-B
Mon 05:37:22 PM 45.8730 -59.6640 198° South 479 551 36,000  Level FlightAware ADS-B
Mon 05:38:00 PM 45.7950 -59.7010 198° South 480 552 36,000  Level FlightAware ADS-B
Mon 05:38:36 PM 45.7190 -59.7370 198° South 480 552 36,000  Level FlightAware ADS-B
Mon 05:39:12 PM 45.6430 -59.7720 198° South 478 550 36,000  Level FlightAware ADS-B
Mon 05:39:44 PM 45.5750 -59.8030 198° South 477 549 36,000  Level FlightAware ADS-B
Mon 05:40:18 PM 45.5030 -59.8370 198° South 475 547 36,000  Level FlightAware ADS-B
Mon 05:40:54 PM 45.4290 -59.8710 198° South 474 545 36,000  Level FlightAware ADS-B
Mon 05:41:30 PM 45.3550 -59.9050 198° South 474 545 36,000  Level FlightAware ADS-B
Mon 05:42:06 PM 45.2800 -59.9400 198° South 474 545 36,000  Level FlightAware ADS-B
Mon 05:42:38 PM 45.2120 -59.9710 198° South 474 545 36,000  Level FlightAware ADS-B
Mon 05:43:16 PM 45.1340 -60.0060 198° South 475 547 36,000  Level FlightAware ADS-B
Mon 05:43:48 PM 45.0670 -60.0360 198° South 475 547 36,000  Level FlightAware ADS-B
Mon 05:44:24 PM 44.9900 -60.0710 198° South 473 544 36,000  Level FlightAware ADS-B
Mon 05:45:01 PM 44.9150 -60.1050 198° South 471 542 36,000  Level FlightAware ADS-B
Mon 05:45:32 PM 44.8480 -60.1360 198° South 470 541 36,000  Level FlightAware ADS-B
Mon 05:46:10 PM 44.7720 -60.1700 198° South 469 540 36,000  Level FlightAware ADS-B
Mon 05:46:46 PM 44.6960 -60.2040 198° South 470 541 36,000  Level FlightAware ADS-B
Mon 05:47:22 PM 44.6220 -60.2380 198° South 470 541 36,000  Level FlightAware ADS-B
Mon 05:47:54 PM 44.5570 -60.2670 198° South 469 540 36,000  Level FlightAware ADS-B
Mon 05:48:28 PM 44.4870 -60.2980 198° South 468 539 36,000  Level FlightAware ADS-B
Mon 05:49:04 PM 44.4130 -60.3310 198° South 467 537 36,000  Level FlightAware ADS-B
Mon 05:49:48 PM 44.3310 -60.3660 197° South 465 535 36,000  Level FlightAware ADS-B
Mon 05:50:40 PM 44.2260 -60.4130 198° South 464 534 36,000  Level FlightAware ADS-B
Mon 05:51:26 PM 44.1450 -60.4470 197° South 464 534 36,000  Level FlightAware ADS-B
Mon 05:52:00 PM 44.0860 -60.4720 197° South 464 534 36,000  Level FlightAware ADS-B
Mon 05:52:37 PM 44.0210 -60.5000 197° South 464 534 36,000  Level FlightAware ADS-B
Mon 05:53:14 PM 43.9570 -60.5270 197° South 464 534 36,000  Level FlightAware ADS-B
Mon 05:53:50 PM 43.8940 -60.5540 197° South 464 534 36,000  Level FlightAware ADS-B
Mon 05:54:26 PM 43.8310 -60.5810 197° South 464 534 36,000  Level FlightAware ADS-B
Mon 05:55:08 PM 43.6710 -60.6560 199° South 467 537 36,000  Level FlightAware ADS-B
Mon 05:55:46 PM 43.6040 -60.6840 197° South 467 537 36,000  Level FlightAware ADS-B
Mon 05:56:18 PM 43.5220 -60.7200 198° South 466 536 36,000  Level FlightAware ADS-B
Mon 05:56:58 PM 43.4400 -60.7550 197° South 465 535 36,000  Level FlightAware ADS-B
Mon 05:57:33 PM 43.3670 -60.7870 198° South 463 533 36,000  Level FlightAware ADS-B
Mon 05:58:13 PM 43.2870 -60.8210 197° South 461 531 36,000  Level FlightAware ADS-B
Mon 05:58:54 PM 43.2170 -60.8510 197° South 461 531 36,000  Level FlightAware ADS-B
Mon 05:59:38 PM 43.1210 -60.8910 197° South 461 531 36,000  Level FlightAware ADS-B
Mon 06:00:08 PM 43.0530 -60.9210 198° South 463 533 36,000  Level FlightAware ADS-B
Mon 06:00:38 PM 42.9930 -60.9460 197° South 464 534 36,000  Level FlightAware ADS-B
Mon 06:01:26 PM 42.9130 -60.9790 197° South 464 534 36,000  Level FlightAware ADS-B
Mon 06:01:58 PM 42.8260 -61.0160 197° South 465 535 36,000  Level FlightAware ADS-B
Mon 06:02:36 PM 42.7550 -61.0460 197° South 465 535 36,000  Level FlightAware ADS-B
Mon 06:03:29 PM 42.6540 -61.0880 197° South 465 535 36,000  Level FlightAware ADS-B
Mon 06:03:53 PM 42.5950 -61.1130 197° South 465 535 36,000  Level FlightAware ADS-B
Mon 06:04:33 PM 42.5250 -61.1420 197° South 465 535 36,000  Level FlightAware ADS-B
Mon 06:05:05 PM 42.4490 -61.1860 203° Southwest 463 533 36,000  Level FlightAware ADS-B
Mon 06:05:34 PM 42.3920 -61.2320 211° Southwest 463 533 36,000  Level FlightAware ADS-B
Mon 06:06:30 PM 42.3040 -61.3210 217° Southwest 459 528 36,000  Level FlightAware ADS-B
Mon 06:06:55 PM 42.2670 -61.3840 232° Southwest 453 521 36,000  Level FlightAware ADS-B
Mon 06:07:46 PM 42.1970 -61.4960 230° Southwest 452 520 36,000  Level FlightAware ADS-B
Mon 06:08:16 PM 42.1630 -61.5500 230° Southwest 452 520 36,000  Level FlightAware ADS-B
Mon 06:08:52 PM 42.1100 -61.6340 230° Southwest 453 521 36,000  Level FlightAware ADS-B
Mon 06:09:32 PM 42.0570 -61.7170 229° Southwest 453 521 36,000  Level FlightAware ADS-B
Mon 06:10:02 PM 42.0170 -61.7790 229° Southwest 453 521 36,000  Level FlightAware ADS-B
Mon 06:10:37 PM 41.9710 -61.8520 230° Southwest 450 518 36,000  Level FlightAware ADS-B
Mon 06:11:23 PM 41.9170 -61.9340 229° Southwest 450 518 36,000  Level FlightAware ADS-B
Mon 06:11:57 PM 41.8620 -62.0210 230° Southwest 443 510 36,000  Level FlightAware ADS-B
Mon 06:12:39 PM 41.8090 -62.1030 229° Southwest 443 510 36,000  Level FlightAware ADS-B
Mon 06:13:20 PM 41.7540 -62.1890 229° Southwest 442 509 36,000  Level FlightAware ADS-B
Mon 06:14:02 PM 41.6940 -62.2820 229° Southwest 442 509 36,000  Level FlightAware ADS-B
Mon 06:14:37 PM 41.6450 -62.3570 229° Southwest 443 510 36,000  Level FlightAware ADS-B
Mon 06:15:00 PM 41.6333 -62.3833 233° Southwest 444 511 36,000  Level New York Oceanic (ODAPS)
Mon 06:16:28 PM 41.5010 -62.5780 229° Southwest 444 511 36,000  Level FlightAware ADS-B
Mon 06:17:02 PM 41.4500 -62.6550 229° Southwest 443 510 36,000  Level FlightAware ADS-B
Mon 06:17:57 PM 41.3860 -62.7520 229° Southwest 444 511 36,000  Level FlightAware ADS-B
Mon 06:18:33 PM 41.3450 -62.8160 230° Southwest 444 511 36,000  Level FlightAware ADS-B
Mon 06:19:19 PM 41.2760 -62.9200 229° Southwest 440 506 36,000  Level FlightAware ADS-B
Mon 06:19:55 PM 41.2350 -62.9820 229° Southwest 440 506 36,000 265 Level FlightAware ADS-B
Mon 06:20:27 PM 41.1780 -63.0670 233° Southwest 441 507 36,300 257 Climbing FlightAware ADS-B
Mon 06:21:05 PM 41.1340 -63.1330 228° Southwest 441 507 36,300 480 Level FlightAware ADS-B
Mon 06:21:42 PM 41.0750 -63.2220 229° Southwest 438 504 36,900 583 Climbing FlightAware ADS-B
Mon 06:22:17 PM 41.0300 -63.2880 228° Southwest 439 505 37,000 75 Climbing FlightAware ADS-B
Mon 06:23:02 PM 40.9660 -63.3840 229° Southwest 440 506 37,000  Level FlightAware ADS-B
Mon 06:23:39 PM 40.9230 -63.4470 228° Southwest 440 506 37,000  Level FlightAware ADS-B
Mon 06:24:19 PM 40.8660 -63.5320 228° Southwest 439 505 37,000  Level FlightAware ADS-B
Mon 06:25:12 PM 40.7950 -63.6360 228° Southwest 438 504 37,000  Level FlightAware ADS-B
Mon 06:25:52 PM 40.7430 -63.7130 228° Southwest 438 504 37,000  Level FlightAware ADS-B
Mon 06:26:27 PM 40.6920 -63.7880 228° Southwest 439 505 37,000  Level FlightAware ADS-B
Mon 06:27:04 PM 40.6490 -63.8510 228° Southwest 439 505 37,000  Level FlightAware ADS-B
Mon 06:27:40 PM 40.6070 -63.9120 228° Southwest 439 505 37,000  Level FlightAware ADS-B
Mon 06:28:17 PM 40.5650 -63.9740 228° Southwest 439 505 37,000  Level FlightAware ADS-B
Mon 06:28:53 PM 40.5230 -64.0350 228° Southwest 439 505 37,000  Level FlightAware ADS-B
Mon 06:29:29 PM 40.4810 -64.0960 228° Southwest 439 505 37,000  Level FlightAware ADS-B
Mon 06:29:43 PM 40.5000 -64.0667 233° Southwest 442 509 37,000  Level New York Oceanic (ODAPS)
Mon 06:30:05 PM 40.4400 -64.1570 229° Southwest 439 505 37,000  Level FlightAware ADS-B
Mon 06:30:17 PM 46.4820 -61.6660 16° North 37,000  Level FlightAware ADS-B
Mon 06:35:00 PM 46.0724 -62.2060 223° Southwest  Level Estimated
Mon 06:36:00 PM 39.9752 -64.9718 232° Southwest 442 509 37,000  Level FlightAware Transoceanic
Mon 06:37:00 PM 39.8997 -65.0999 232° Southwest 442 509 37,000  Level FlightAware Transoceanic
Mon 06:38:00 PM 39.8240 -65.2278 232° Southwest 442 509 37,000  Level FlightAware Transoceanic
Mon 06:39:00 PM 39.7482 -65.3554 232° Southwest 442 509 37,000  Level FlightAware Transoceanic
Mon 06:40:00 PM 39.6722 -65.4827 232° Southwest 442 509 37,000  Level FlightAware Transoceanic
Mon 06:41:00 PM 39.5961 -65.6098 232° Southwest 442 509 37,000  Level FlightAware Transoceanic
Mon 06:42:00 PM 39.5199 -65.7365 232° Southwest 442 509 37,000  Level FlightAware Transoceanic
Mon 06:42:38 PM 39.3500 -65.6833 233° Southwest 440 506 37,000  Level New York Oceanic (ODAPS)
Mon 06:43:00 PM 39.4435 -65.8630 232° Southwest 442 509 37,000  Level FlightAware Transoceanic
Mon 06:44:00 PM 39.3670 -65.9892 232° Southwest 442 509 37,000  Level FlightAware Transoceanic
Mon 06:45:00 PM 39.2903 -66.1151 232° Southwest 442 509 37,000  Level FlightAware Transoceanic
Mon 06:46:00 PM 39.2136 -66.2408 232° Southwest 442 509 37,000  Level FlightAware Transoceanic
Mon 06:47:00 PM 39.1366 -66.3661 232° Southwest 442 509 37,000  Level FlightAware Transoceanic
Mon 06:48:00 PM 39.0596 -66.4912 232° Southwest 442 509 37,000  Level FlightAware Transoceanic
Mon 06:49:00 PM 38.9001 -66.4561 233° Southwest 440 506 37,000  Level FlightAware Transoceanic
Mon 06:50:00 PM 38.8246 -66.5839 233° Southwest 440 506 37,000  Level FlightAware Transoceanic
Mon 06:51:00 PM 38.7490 -66.7115 233° Southwest 440 506 37,000  Level FlightAware Transoceanic
Mon 06:51:11 PM 38.6333 -66.6667 234° Southwest 446 513 37,000  Level New York Oceanic (ODAPS)
Mon 06:52:00 PM 38.6732 -66.8388 233° Southwest 440 506 37,000  Level FlightAware Transoceanic
Mon 06:53:00 PM 38.5974 -66.9658 233° Southwest 440 506 37,000  Level FlightAware Transoceanic
Mon 06:54:00 PM 38.5213 -67.0926 232° Southwest 440 506 37,000  Level FlightAware Transoceanic
Mon 06:55:00 PM 38.4452 -67.2191 232° Southwest 440 506 37,000  Level FlightAware Transoceanic
Mon 06:56:00 PM 38.3689 -67.3453 232° Southwest 440 506 37,000  Level FlightAware Transoceanic
Mon 06:57:00 PM 38.1917 -67.4313 233° Southwest 446 513 37,000  Level FlightAware Transoceanic
Mon 06:58:00 PM 38.1177 -67.5578 233° Southwest 446 513 37,000  Level FlightAware Transoceanic
Mon 06:59:00 PM 38.0434 -67.6841 233° Southwest 446 513 37,000  Level FlightAware Transoceanic
Mon 07:00:00 PM 37.9691 -67.8101 233° Southwest 446 513 37,000  Level FlightAware Transoceanic
Mon 07:01:00 PM 37.8946 -67.9359 233° Southwest 446 513 37,000  Level FlightAware Transoceanic
Mon 07:02:00 PM 37.8200 -68.0614 233° Southwest 446 513 37,000  Level FlightAware Transoceanic
Mon 07:03:00 PM 37.7453 -68.1867 233° Southwest 446 513 37,000  Level FlightAware Transoceanic
Mon 07:04:00 PM 37.6704 -68.3117 233° Southwest 446 513 37,000  Level FlightAware Transoceanic
Mon 07:05:00 PM 37.5954 -68.4364 233° Southwest 446 513 37,000  Level FlightAware Transoceanic
Mon 07:06:00 PM 37.5202 -68.5609 233° Southwest 446 513 37,000  Level FlightAware Transoceanic
Mon 07:07:00 PM 37.4449 -68.6852 233° Southwest 446 513 37,000  Level FlightAware Transoceanic
Mon 07:08:00 PM 37.3695 -68.8092 233° Southwest 446 513 37,000  Level FlightAware Transoceanic
Mon 07:09:00 PM 37.2940 -68.9329 232° Southwest 446 513 37,000  Level FlightAware Transoceanic
Mon 07:10:00 PM 37.2183 -69.0564 232° Southwest 446 513 37,000  Level FlightAware Transoceanic
Mon 07:11:00 PM 37.1426 -69.1797 232° Southwest 446 513 37,000  Level FlightAware Transoceanic
Mon 07:12:00 PM 37.0666 -69.3027 232° Southwest 446 513 37,000  Level FlightAware Transoceanic
Mon 07:13:00 PM 36.9906 -69.4254 232° Southwest 446 513 37,000  Level FlightAware Transoceanic
Mon 07:14:00 PM 36.9144 -69.5479 232° Southwest 446 513 37,000  Level FlightAware Transoceanic
Mon 07:15:00 PM 36.8381 -69.6702 232° Southwest 446 513 37,000  Level FlightAware Transoceanic
Mon 07:16:00 PM 36.7617 -69.7922 232° Southwest 446 513 37,000  Level FlightAware Transoceanic
Mon 07:16:16 PM 36.7333 -69.8333 232° Southwest 466 536 37,000  Level New York Oceanic (ODAPS)
Mon 07:17:00 PM 36.6852 -69.9140 232° Southwest 446 513 37,000  Level FlightAware Transoceanic
Mon 07:17:30 PM 36.7333 -69.8333 232° Southwest 447 514 37,000  Level New York Oceanic (ODAPS)
Mon 07:18:00 PM 36.6085 -70.0356 232° Southwest 446 513 37,000  Level FlightAware Transoceanic
Mon 07:18:52 PM 36.7333 -69.8333 232° Southwest 447 514 37,000  Level New York Oceanic (ODAPS)
Mon 07:19:00 PM 36.5317 -70.1569 232° Southwest 446 513 37,000  Level FlightAware Transoceanic
Mon 07:20:00 PM 36.4548 -70.2779 232° Southwest 446 513 37,000  Level FlightAware Transoceanic
Mon 07:20:27 PM 36.4333 -70.3167 232° Southwest 459 528 37,000  Level New York Oceanic (ODAPS)
Mon 07:21:00 PM 36.3777 -70.3987 232° Southwest 446 513 37,000  Level FlightAware Transoceanic
Mon 07:21:25 PM 36.3500 -70.4333 232° Southwest 419 482 37,000  Level New York Oceanic (ODAPS)
Mon 07:22:00 PM 36.2798 -70.5488 232° Southwest 466 536 37,000  Level FlightAware Transoceanic
Mon 07:23:00 PM 36.2038 -70.6673 231° Southwest 447 514 37,000  Level FlightAware Transoceanic
Mon 07:24:00 PM 36.1276 -70.7855 231° Southwest 447 514 37,000  Level FlightAware Transoceanic
Mon 07:24:15 PM 36.1500 -70.7500 231° Southwest 425 489 37,000  Level New York Oceanic (ODAPS)
Mon 07:25:00 PM 36.0514 -70.9035 231° Southwest 447 514 37,000  Level FlightAware Transoceanic
Mon 07:26:00 PM 35.9763 -71.0248 231° Southwest 459 528 37,000  Level FlightAware Transoceanic
Mon 07:27:00 PM 35.9203 -71.1016 231° Southwest 419 482 37,000  Level FlightAware Transoceanic
Mon 07:28:00 PM 35.8483 -71.2123 231° Southwest 419 482 37,000  Level FlightAware Transoceanic
Mon 07:29:00 PM 35.7762 -71.3228 231° Southwest 419 482 37,000  Level FlightAware Transoceanic
Mon 07:30:00 PM 35.7128 -71.4222 231° Southwest 425 489 37,000  Level FlightAware Transoceanic
Mon 07:31:00 PM 35.6395 -71.5335 231° Southwest 425 489 37,000  Level FlightAware Transoceanic
Mon 07:32:00 PM 35.5662 -71.6446 231° Southwest 425 489 37,000  Level FlightAware Transoceanic
Mon 07:33:00 PM 35.4927 -71.7555 231° Southwest 425 489 37,000  Level FlightAware Transoceanic
Mon 07:33:14 PM 35.9108 -72.2428 231° Southwest 466 536 37,000  Level New York Center
Mon 07:34:00 PM 35.4192 -71.8662 231° Southwest 425 489 37,000  Level FlightAware Transoceanic
Mon 07:34:14 PM 35.8178 -72.3383 220° Southwest 456 525 37,000  Level New York Center
Mon 07:35:00 PM 35.3456 -71.9767 231° Southwest 425 489 37,000  Level FlightAware Transoceanic
Mon 07:35:14 PM 35.7267 -72.4311 220° Southwest 444 511 37,000  Level New York Center
Mon 07:36:00 PM 35.2718 -72.0870 231° Southwest 425 489 37,000  Level FlightAware Transoceanic
Mon 07:36:14 PM 35.6272 -72.5261 218° Southwest 444 511 37,000  Level New York Center
Mon 07:37:00 PM 35.1980 -72.1971 231° Southwest 425 489 37,000  Level FlightAware Transoceanic
Mon 07:37:14 PM 35.5297 -72.6233 219° Southwest 444 511 37,000  Level New York Center
Mon 07:38:14 PM 35.4364 -72.7153 219° Southwest 451 519 37,000  Level New York Center
Mon 07:39:14 PM 35.3408 -72.8072 218° Southwest 451 519 37,000  Level New York Center
Mon 07:40:14 PM 35.2411 -72.9036 218° Southwest 462 532 37,000  Level New York Center
Mon 07:41:14 PM 35.1433 -73.0000 219° Southwest 450 518 37,000  Level New York Center
Mon 07:42:14 PM 35.0478 -73.0936 219° Southwest 450 518 37,000  Level New York Center
Mon 07:43:14 PM 34.9519 -73.1872 219° Southwest 450 518 37,000 400 Level New York Center
Mon 07:44:14 PM 34.8583 -73.2753 218° Southwest 445 512 37,800 500 Climbing New York Center
Mon 07:45:14 PM 34.7622 -73.3683 219° Southwest 440 506 38,000 100 Climbing New York Center
Mon 07:46:14 PM 34.6706 -73.4561 218° Southwest 440 506 38,000  Level New York Center
Mon 07:47:14 PM 34.5789 -73.5439 218° Southwest 440 506 38,000  Level New York Center
Mon 07:48:14 PM 34.4847 -73.6336 218° Southwest 434 499 38,000  Level New York Center
Mon 07:50:00 PM 34.3470 -73.7527 217° Southwest  Level FlightAware Approximate
Mon 07:57:00 PM 33.8236 -74.2541 219° Southwest  Level FlightAware Approximate
Mon 07:58:00 PM 33.7489 -74.3255 219° Southwest  Level FlightAware Approximate
Mon 07:59:00 PM 33.6741 -74.3969 218° Southwest  Level FlightAware Approximate
Mon 08:00:00 PM 33.5993 -74.4681 218° Southwest  Level FlightAware Approximate
Mon 08:01:00 PM 33.5323 -74.5490 230° Southwest  Level FlightAware Approximate
Mon 08:02:00 PM 33.4708 -74.6366 230° Southwest  Level FlightAware Approximate
Mon 08:03:00 PM 33.4092 -74.7240 230° Southwest  Level FlightAware Approximate
Mon 08:04:00 PM 33.3476 -74.8113 230° Southwest  Level FlightAware Approximate
Mon 08:04:14 PM 33.0828 -75.1914 230° Southwest 436 502 38,000  Level New York Center
Mon 08:05:00 PM 33.2859 -74.8985 230° Southwest  Level FlightAware Approximate
Mon 08:05:14 PM 33.0097 -75.3014 232° Southwest 436 502 38,000  Level New York Center
Mon 08:06:00 PM 33.2242 -74.9856 230° Southwest  Level FlightAware Approximate
Mon 08:06:14 PM 32.9283 -75.4106 228° Southwest 441 507 38,000  Level New York Center
Mon 08:07:00 PM 33.1623 -75.0725 230° Southwest  Level FlightAware Approximate
Mon 08:07:14 PM 32.8444 -75.5219 228° Southwest 448 516 38,000  Level New York Center
Mon 08:08:00 PM 33.1005 -75.1593 230° Southwest  Level FlightAware Approximate
Mon 08:08:14 PM 32.7692 -75.6311 231° Southwest 442 509 38,000  Level New York Center
Mon 08:09:00 PM 33.0386 -75.2460 230° Southwest  Level FlightAware Approximate
Mon 08:09:14 PM 32.6917 -75.7375 229° Southwest 436 502 38,000  Level New York Center
Mon 08:11:22 PM 32.5297 -75.9625 230° Southwest 426 490 38,000  Level Jacksonville Center
Mon 08:12:22 PM 32.4483 -76.0769 230° Southwest 426 490 38,000  Level Jacksonville Center
Mon 08:13:22 PM 32.3764 -76.1733 229° Southwest 421 484 38,000  Level Jacksonville Center
Mon 08:14:22 PM 32.3044 -76.2719 229° Southwest 429 494 38,000  Level Jacksonville Center
Mon 08:15:22 PM 32.2322 -76.3706 229° Southwest 424 488 38,000  Level Jacksonville Center
Mon 08:16:22 PM 32.1483 -76.4819 228° Southwest 424 488 38,000  Level Jacksonville Center
Mon 08:17:22 PM 32.0719 -76.5853 229° Southwest 427 491 38,000  Level Jacksonville Center
Mon 08:18:22 PM 31.9939 -76.6911 229° Southwest 435 501 38,000  Level Jacksonville Center
Mon 08:19:22 PM 31.9114 -76.7969 227° Southwest 428 493 38,000  Level Jacksonville Center
Mon 08:20:22 PM 31.8331 -76.9072 230° Southwest 434 499 38,000  Level Jacksonville Center
Mon 08:21:22 PM 31.7564 -77.0075 228° Southwest 434 499 38,000  Level Jacksonville Center
Mon 08:22:22 PM 31.6803 -77.1219 232° Southwest 434 499 38,000  Level Jacksonville Center
Mon 08:23:22 PM 31.6058 -77.2314 231° Southwest 434 499 38,000  Level Jacksonville Center
Mon 08:24:22 PM 31.5356 -77.3381 232° Southwest 426 490 38,000  Level Jacksonville Center
Mon 08:25:22 PM 31.4431 -77.4239 218° Southwest 432 497 38,000  Level Jacksonville Center
Mon 08:26:22 PM 31.3214 -77.4531 192° South 417 480 38,000  Level Jacksonville Center
Mon 08:27:22 PM 31.2008 -77.4672 186° South 427 491 38,000  Level Jacksonville Center
Mon 08:28:22 PM 31.0767 -77.4889 189° South 440 506 38,000  Level Jacksonville Center
Mon 08:29:22 PM 30.9547 -77.5200 192° South 451 519 38,000  Level Jacksonville Center
Mon 08:30:22 PM 30.8303 -77.5369 187° South 451 519 38,000  Level Jacksonville Center
Mon 08:32:00 PM 30.6287 -77.5276 190° South  Level FlightAware Approximate
Mon 08:33:29 PM 30.4347 -77.6281 178° South 463 533 38,000  Level Miami Center
Mon 08:35:29 PM 30.1864 -77.6525 185° South 455 524 38,000  Level Miami Center
Mon 08:36:29 PM 30.0675 -77.6517 180° South 450 518 38,000  Level Miami Center
Mon 08:37:29 PM 29.9406 -77.6461 178° South 441 507 38,000  Level Miami Center
Mon 08:38:29 PM 29.8111 -77.6378 177° South 449 517 38,000  Level Miami Center
Mon 08:39:00 PM 29.8137 -77.7125 178° South  Level FlightAware Approximate
Mon 08:39:29 PM 29.6778 -77.6297 177° South 461 531 38,000  Level Miami Center
Mon 08:40:00 PM 29.6947 -77.7078 178° South  Level FlightAware Approximate
Mon 08:40:29 PM 29.5569 -77.6267 179° South 461 531 38,000  Level Miami Center
Mon 08:41:29 PM 29.4275 -77.6208 178° South 461 531 38,000  Level Miami Center
Mon 08:42:29 PM 29.2919 -77.6128 177° South 466 536 38,000  Level Miami Center
Mon 08:43:29 PM 29.1711 -77.6119 180° South 472 543 38,000  Level Miami Center
Mon 08:44:29 PM 29.0417 -77.6064 178° South 459 528 38,000  Level Miami Center
Mon 08:45:29 PM 28.9103 -77.6008 178° South 472 543 38,000  Level Miami Center
Mon 08:47:00 PM 28.7660 -77.5940 178° South  Level FlightAware Approximate
Mon 08:54:00 PM 28.1002 -77.5627 178° South  Level FlightAware Approximate
Mon 08:55:00 PM 28.0051 -77.5583 178° South  Level FlightAware Approximate
Mon 08:56:00 PM 27.9100 -77.5539 178° South  Level FlightAware Approximate
Mon 08:56:39 PM 27.5090 -77.8040 178° South 454 522 38,000  Level FlightAware ADS-B
Mon 08:57:23 PM 27.4370 -77.8410 205° Southwest 454 522 38,000  Level FlightAware ADS-B
Mon 08:57:59 PM 27.3780 -77.8700 204° Southwest 454 522 38,000  Level FlightAware ADS-B
Mon 08:58:35 PM 27.3190 -77.9000 204° Southwest 454 522 38,000  Level FlightAware ADS-B
Mon 08:59:03 PM 27.2400 -77.9420 205° Southwest 458 527 38,000  Level FlightAware ADS-B
Mon 08:59:45 PM 27.1490 -77.9880 204° Southwest 459 528 38,000  Level FlightAware ADS-B
Mon 09:00:19 PM 27.0820 -78.0230 205° Southwest 457 526 38,000  Level FlightAware ADS-B
Mon 09:00:56 PM 27.0049 -78.0616 204° Southwest 456 525 38,000  Level FlightAware ADS-B
Mon 09:01:36 PM 26.9274 -78.1008 204° Southwest 456 525 38,000  Level FlightAware ADS-B
Mon 09:04:00 PM 26.6776 -78.2596 204° Southwest  Level FlightAware Approximate
Mon 09:05:00 PM 26.5688 -78.3130 204° Southwest  Level FlightAware Approximate
Mon 09:06:00 PM 26.4601 -78.3664 204° Southwest  Level FlightAware Approximate
Mon 09:07:00 PM 26.3513 -78.4197 204° Southwest  Level FlightAware Approximate
Mon 09:08:00 PM 26.2425 -78.4729 204° Southwest  Level FlightAware Approximate
Mon 09:09:00 PM 26.1336 -78.5259 204° Southwest  Level FlightAware Approximate
Mon 09:10:00 PM 26.0247 -78.5786 203° Southwest  Level FlightAware Approximate
Mon 09:11:00 PM 25.9153 -78.6303 203° Southwest  Level FlightAware Approximate
Mon 09:12:00 PM 25.8060 -78.6818 203° Southwest  Level FlightAware Approximate
Mon 09:13:00 PM 25.6966 -78.7333 203° Southwest  Level FlightAware Approximate
Mon 09:13:37 PM 25.5330 -78.7970 203° Southwest 463 533 38,000  Level FlightAware ADS-B
Mon 09:14:13 PM 25.4660 -78.8300 204° Southwest 456 525 38,000  Level FlightAware ADS-B
Mon 09:14:43 PM 25.4050 -78.8600 204° Southwest 456 525 38,000  Level FlightAware ADS-B
Mon 09:15:18 PM 25.3380 -78.8930 204° Southwest 456 525 38,000  Level FlightAware ADS-B
Mon 09:15:54 PM 25.2710 -78.9260 204° Southwest 458 527 38,000  Level FlightAware ADS-B
Mon 09:16:28 PM 25.2010 -78.9600 204° Southwest 459 528 38,000  Level FlightAware ADS-B
Mon 09:17:03 PM 25.1310 -78.9940 204° Southwest 459 528 38,000  Level FlightAware ADS-B
Mon 09:17:43 PM 25.0520 -79.0330 204° Southwest 459 528 38,000  Level FlightAware ADS-B
Mon 09:18:18 PM 24.9810 -79.0670 203° Southwest 460 529 38,000  Level FlightAware ADS-B
Mon 09:18:48 PM 24.9230 -79.0960 204° Southwest 461 531 38,000  Level FlightAware ADS-B
Mon 09:19:23 PM 24.8550 -79.1290 204° Southwest 461 531 38,000  Level FlightAware ADS-B
Mon 09:20:03 PM 24.7750 -79.1680 204° Southwest 461 531 38,000  Level FlightAware ADS-B
Mon 09:20:33 PM 24.7140 -79.1970 203° Southwest 460 529 38,000  Level FlightAware ADS-B
Mon 09:21:08 PM 24.6480 -79.2300 204° Southwest 459 528 38,000  Level FlightAware ADS-B
Mon 09:21:48 PM 24.5660 -79.2690 203° Southwest 458 527 38,000  Level FlightAware ADS-B
Mon 09:22:23 PM 24.4980 -79.3020 204° Southwest 459 528 38,000  Level FlightAware ADS-B
Mon 09:22:53 PM 24.4370 -79.3310 203° Southwest 459 528 38,000 -171 Level FlightAware ADS-B
Mon 09:23:33 PM 24.3620 -79.3680 204° Southwest 463 533 37,800 -369 Descending FlightAware ADS-B
Mon 09:23:58 PM 24.3120 -79.3920 204° Southwest 473 544 37,600 -492 Descending FlightAware ADS-B
Mon 09:24:34 PM 24.2400 -79.4300 206° Southwest 473 544 37,300 -429 Descending FlightAware ADS-B
Mon 09:25:08 PM 24.1770 -79.4750 213° Southwest 464 534 37,100 -257 Descending FlightAware ADS-B
Mon 09:25:44 PM 24.1200 -79.5270 220° Southwest 469 540 37,000 -80 Descending FlightAware ADS-B
Mon 09:26:23 PM 24.0590 -79.6000 228° Southwest 467 537 37,000  Level FlightAware ADS-B
Mon 09:26:48 PM 24.0340 -79.6500 241° Southwest 460 529 37,000  Level FlightAware ADS-B
Mon 09:27:23 PM 24.0130 -79.7300 254° West 459 528 37,000  Level FlightAware ADS-B
Mon 09:27:58 PM 23.9910 -79.8080 253° West 460 529 37,000  Level FlightAware ADS-B
Mon 09:28:33 PM 23.9690 -79.8850 253° West 460 529 37,000  Level FlightAware ADS-B
Mon 09:29:08 PM 23.9500 -79.9550 253° West 460 529 37,000  Level FlightAware ADS-B
Mon 09:29:43 PM 23.9270 -80.0360 253° West 458 527 37,000  Level FlightAware ADS-B
Mon 09:30:15 PM 23.9070 -80.1060 253° West 460 529 37,000  Level FlightAware ADS-B
Mon 09:30:50 PM 23.8850 -80.1870 253° West 459 528 37,000  Level FlightAware ADS-B
Mon 09:31:30 PM 23.8600 -80.2730 252° West 458 527 37,000  Level FlightAware ADS-B
Mon 09:32:05 PM 23.8370 -80.3570 253° West 458 527 37,000  Level FlightAware ADS-B
Mon 09:32:35 PM 23.8190 -80.4210 253° West 460 529 37,000 -738 Level FlightAware ADS-B
Mon 09:33:10 PM 23.7960 -80.5010 253° West 466 536 36,200 -1,840 Descending FlightAware ADS-B
Mon 09:33:50 PM 23.7700 -80.5920 253° West 467 537 34,700 -2,080 Descending FlightAware ADS-B
Mon 09:34:25 PM 23.7480 -80.6700 253° West 461 531 33,600 -1,938 Descending FlightAware ADS-B
Mon 09:34:55 PM 23.7290 -80.7370 253° West 456 525 32,600 -1,846 Descending FlightAware ADS-B
Mon 09:35:30 PM 23.7070 -80.8130 252° West 451 519 31,600 -1,760 Descending FlightAware ADS-B
Mon 09:36:10 PM 23.6830 -80.8970 253° West 444 511 30,400 -1,840 Descending FlightAware ADS-B
Mon 09:36:45 PM 23.6620 -80.9700 253° West 440 506 29,300 -1,886 Descending FlightAware ADS-B
Mon 09:37:20 PM 23.6400 -81.0470 253° West 436 502 28,200 -1,846 Descending FlightAware ADS-B
Mon 09:37:50 PM 23.6220 -81.1090 252° West 432 497 27,300 -1,800 Descending FlightAware ADS-B
Mon 09:38:30 PM 23.5990 -81.1900 253° West 427 491 26,100 -1,775 Descending FlightAware ADS-B
Mon 09:39:01 PM 23.5810 -81.2540 253° West 424 488 25,200 -1,886 Descending FlightAware ADS-B
Mon 09:39:40 PM 23.5580 -81.3330 252° West 419 482 23,900 -1,913 Descending FlightAware ADS-B
Mon 09:40:10 PM 23.5400 -81.3950 252° West 411 473 23,000 -1,754 Descending FlightAware ADS-B
Mon 09:40:45 PM 23.5210 -81.4600 252° West 403 464 22,000 -1,760 Descending FlightAware ADS-B
Mon 09:41:25 PM 23.4980 -81.5390 252° West 397 457 20,800 -1,714 Descending FlightAware ADS-B
Mon 09:41:55 PM 23.4820 -81.5940 252° West 390 449 20,000 -1,754 Descending FlightAware ADS-B
Mon 09:42:30 PM 23.4630 -81.6600 253° West 383 441 18,900 -1,724 Descending FlightAware ADS-B
Mon 09:43:22 PM 23.4360 -81.7520 252° West 371 427 17,500 -1,021 Descending FlightAware ADS-B
Mon 09:44:04 PM 23.4160 -81.8190 252° West 370 426 17,300 -154 Descending FlightAware ADS-B
Mon 09:44:40 PM 23.4000 -81.8730 252° West 370 426 17,300 -1,714 Level FlightAware ADS-B
Mon 09:45:28 PM 23.3630 -81.9570 244° Southwest 346 398 14,900 -1,714 Descending FlightAware ADS-B
Mon 09:46:04 PM 23.3440 -82.0060 247° West 346 398 14,900  Level FlightAware ADS-B
Mon 09:46:40 PM 23.3250 -82.0550 247° West 346 398 14,900  Level FlightAware ADS-B
Mon 09:49:00 PM 23.1260 -82.2652 224° Southwest  Level Estimated
Mon 09:50:00 PM 23.0406 -82.3550 224° Southwest  Level Estimated
Mon 09:51:00 PM 22.9891 -82.4091 224° Southwest  Level Estimated
Mon 09:52:00 PM 22.9891 -82.4091 51° Northeast  Level Estimated
Mon 09:53:00 PM 22.9891 -82.4091 51° Northeast  Level Estimated
Mon 09:54:00 PM 22.9891 -82.4091 51° Northeast  Level Estimated
Mon 09:55:00 PM 22.9891 -82.4091 51° Northeast  Level Estimated
Mon 09:56:00 PM 22.9891 -82.4091 51° Northeast  Level Estimated
Mon 09:57:00 PM 22.9891 -82.4091 51° Northeast  Level Estimated
Mon 09:58:00 PM 22.9891 -82.4091 51° Northeast  Level Estimated
Mon 09:59:00 PM 22.9891 -82.4091 51° Northeast  Level Estimated
Mon 10:00:00 PM 22.9891 -82.4091 51° Northeast  Level Estimated
Mon 10:01:00 PM 22.9891 -82.4091 51° Northeast  Level Estimated
Mon 10:02:00 PM 22.9891 -82.4091 51° Northeast  Level Estimated
Mon 10:03:00 PM 22.9891 -82.4091 51° Northeast  Level Estimated
Mon 10:04:00 PM 22.9891 -82.4091 51° Northeast  Level Estimated
Mon 10:05:00 PM 22.9891 -82.4091 51° Northeast  Level Estimated
Mon 10:06:00 PM 22.9891 -82.4091 51° Northeast  Level Estimated
Mon 10:07:00 PM 22.9891 -82.4091 51° Northeast  Level Estimated
Mon 10:08:00 PM 22.9891 -82.4091 51° Northeast  Level Estimated
Mon 10:09:00 PM 22.9891 -82.4091 51° Northeast  Level Estimated
Mon 10:10:00 PM 22.9891 -82.4091 51° Northeast  Level Estimated
Mon 10:11:00 PM 22.9891 -82.4091 51° Northeast  Level Estimated
Mon 10:12:00 PM 22.9891 -82.4091 51° Northeast  Level Estimated
Mon 10:13:00 PM 22.9891 -82.4091 51° Northeast  Level Estimated

Login

Don't have an account? Register now (free) for customized features, flight alerts, and more!